Observation data for Caprock Canyons on 09/13/2017      Previous  Date  Next       Current Mesonet Observations  Soil Data  Daily Summary Page  Observations in Plain Language
KQU1 130500Z 21005KT 20/11 A2995 RMK A01 T02010114  RH  057%=      5-min Rain = 0
KQU1 130501Z 21006KT 20/11 A2995 RMK A01 T02030114  RH  057%=      5-min Rain = 0
KQU1 130502Z 21007KT 20/11 A2995 RMK A01 T02030113  RH  056%=      5-min Rain = 0
KQU1 130503Z 21008KT 20/11 A2995 RMK A01 T02030113  RH  056%=      5-min Rain = 0
KQU1 130504Z 20008KT 20/11 A2995 RMK A01 T02030113  RH  056%=      5-min Rain = 0
KQU1 130505Z 20008KT 20/11 A2995 RMK A01 T02030112  RH  056%=      5-min Rain = 0
KQU1 130506Z 20008KT 20/11 A2995 RMK A01 T02040111  RH  055%=      5-min Rain = 0
KQU1 130507Z 19007KT 21/11 A2995 RMK A01 T02060111  RH  054%=      5-min Rain = 0
KQU1 130508Z 19006KT 21/11 A2995 RMK A01 T02060110  RH  054%=      5-min Rain = 0
KQU1 130509Z 19006KT 21/11 A2995 RMK A01 T02070110  RH  054%=      5-min Rain = 0
KQU1 130510Z 20007KT 21/11 A2995 RMK A01 T02070110  RH  054%=      5-min Rain = 0
KQU1 130511Z 21008KT 21/11 A2995 RMK A01 T02070110  RH  054%=      5-min Rain = 0
KQU1 130512Z 21008KT 21/11 A2995 RMK A01 T02070110  RH  054%=      5-min Rain = 0
KQU1 130513Z 21007KT 21/11 A2995 RMK A01 T02060110  RH  054%=      5-min Rain = 0
KQU1 130514Z 20005KT 21/11 A2995 RMK A01 T02060109  RH  054%=      5-min Rain = 0
KQU1 130515Z 20006KT 21/11 A2994 RMK A01 T02070109  RH  053%=      5-min Rain = 0
KQU1 130516Z 19006KT 21/11 A2994 RMK A01 T02060109  RH  054%=      5-min Rain = 0
KQU1 130517Z 20006KT 21/11 A2994 RMK A01 T02050109  RH  054%=      5-min Rain = 0
KQU1 130518Z 20007KT 20/11 A2994 RMK A01 T02040109  RH  054%=      5-min Rain = 0
KQU1 130519Z 20008KT 20/11 A2994 RMK A01 T02030109  RH  055%=      5-min Rain = 0
KQU1 130520Z 20008KT 20/11 A2994 RMK A01 T02030109  RH  055%=      5-min Rain = 0
KQU1 130521Z 21008KT 20/11 A2994 RMK A01 T02020109  RH  055%=      5-min Rain = 0
KQU1 130522Z 21008KT 20/11 A2994 RMK A01 T02020109  RH  055%=      5-min Rain = 0
KQU1 130523Z 21007KT 20/11 A2994 RMK A01 T02020109  RH  055%=      5-min Rain = 0
KQU1 130524Z 21008KT 20/11 A2994 RMK A01 T02020109  RH  055%=      5-min Rain = 0
KQU1 130525Z 21007KT 20/11 A2994 RMK A01 T02010109  RH  055%=      5-min Rain = 0
KQU1 130526Z 21008KT 20/11 A2994 RMK A01 T02010108  RH  055%=      5-min Rain = 0
KQU1 130527Z 22008KT 20/11 A2994 RMK A01 T02010108  RH  055%=      5-min Rain = 0
KQU1 130528Z 22008KT 20/11 A2994 RMK A01 T02000108  RH  055%=      5-min Rain = 0
KQU1 130529Z 22007KT 20/11 A2994 RMK A01 T02000108  RH  056%=      5-min Rain = 0
KQU1 130530Z 21006KT 20/11 A2994 RMK A01 T02000108  RH  056%=      5-min Rain = 0
KQU1 130531Z 22006KT 20/11 A2994 RMK A01 T02000108  RH  055%=      5-min Rain = 0
KQU1 130532Z 21006KT 20/11 A2994 RMK A01 T01990108  RH  056%=      5-min Rain = 0
KQU1 130533Z 21007KT 20/11 A2994 RMK A01 T02000108  RH  055%=      5-min Rain = 0
KQU1 130534Z 21008KT 20/11 A2994 RMK A01 T02010108  RH  055%=      5-min Rain = 0
KQU1 130535Z 21008KT 20/11 A2994 RMK A01 T02010108  RH  055%=      5-min Rain = 0
KQU1 130536Z 21008KT 20/11 A2994 RMK A01 T02010107  RH  055%=      5-min Rain = 0
KQU1 130537Z 21008KT 20/11 A2994 RMK A01 T02020107  RH  054%=      5-min Rain = 0
KQU1 130538Z 21007KT 20/11 A2994 RMK A01 T02030107  RH  054%=      5-min Rain = 0
KQU1 130539Z 20007KT 20/11 A2994 RMK A01 T02040106  RH  053%=      5-min Rain = 0
KQU1 130540Z 20007KT 21/11 A2994 RMK A01 T02060105  RH  052%=      5-min Rain = 0
KQU1 130541Z 21007KT 21/11 A2994 RMK A01 T02070105  RH  052%=      5-min Rain = 0
KQU1 130542Z 21007KT 21/11 A2994 RMK A01 T02070105  RH  052%=      5-min Rain = 0
KQU1 130543Z 21008KT 21/11 A2994 RMK A01 T02070105  RH  052%=      5-min Rain = 0
KQU1 130544Z 21008KT 21/11 A2994 RMK A01 T02070105  RH  052%=      5-min Rain = 0
KQU1 130545Z 20008KT 21/11 A2994 RMK A01 T02070105  RH  052%=      5-min Rain = 0
KQU1 130546Z 20008KT 21/11 A2994 RMK A01 T02070105  RH  052%=      5-min Rain = 0
KQU1 130547Z 20007KT 21/10 A2994 RMK A01 T02070104  RH  052%=      5-min Rain = 0
KQU1 130548Z 20008KT 21/10 A2994 RMK A01 T02070104  RH  051%=      5-min Rain = 0
KQU1 130549Z 21008KT 21/10 A2994 RMK A01 T02080104  RH  051%=      5-min Rain = 0
KQU1 130550Z 21008KT 21/10 A2994 RMK A01 T02080104  RH  051%=      5-min Rain = 0
KQU1 130551Z 21008KT 21/10 A2994 RMK A01 T02070104  RH  052%=      5-min Rain = 0
KQU1 130552Z 21008KT 21/10 A2994 RMK A01 T02060104  RH  052%=      5-min Rain = 0
KQU1 130553Z 21008KT 21/10 A2994 RMK A01 T02060104  RH  052%=      5-min Rain = 0
KQU1 130554Z 21007KT 21/10 A2994 RMK A01 T02050104  RH  052%=      5-min Rain = 0
KQU1 130555Z 21006KT 21/10 A2994 RMK A01 T02050104  RH  052%=      5-min Rain = 0
KQU1 130556Z 20007KT 21/10 A2994 RMK A01 T02050104  RH  052%=      5-min Rain = 0
KQU1 130557Z 20007KT 21/10 A2994 RMK A01 T02050103  RH  052%=      5-min Rain = 0
KQU1 130558Z 21008KT 21/10 A2994 RMK A01 T02060103  RH  052%=      5-min Rain = 0
KQU1 130559Z 21008KT 21/10 A2994 RMK A01 T02070103  RH  051%=      5-min Rain = 0
KQU1 130600Z 21008KT 21/10 A2994 RMK A01 T02060103  RH  052%=      5-min Rain = 0
KQU1 130601Z 21008KT 21/10 A2994 RMK A01 T02050103  RH  052%=      5-min Rain = 0
KQU1 130602Z 21008KT 21/10 A2994 RMK A01 T02050103  RH  052%=      5-min Rain = 0
KQU1 130603Z 21008KT 21/10 A2994 RMK A01 T02050103  RH  052%=      5-min Rain = 0
KQU1 130604Z 21007KT 20/10 A2994 RMK A01 T02040103  RH  052%=      5-min Rain = 0
KQU1 130605Z 21007KT 20/10 A2994 RMK A01 T02030103  RH  053%=      5-min Rain = 0
KQU1 130606Z 21006KT 20/10 A2994 RMK A01 T02030103  RH  053%=      5-min Rain = 0
KQU1 130607Z 21007KT 20/10 A2994 RMK A01 T02020103  RH  053%=      5-min Rain = 0
KQU1 130608Z 21008KT 20/10 A2994 RMK A01 T02020103  RH  053%=      5-min Rain = 0
KQU1 130609Z 21008KT 20/10 A2994 RMK A01 T02010103  RH  053%=      5-min Rain = 0
KQU1 130610Z 21008KT 20/10 A2994 RMK A01 T02020102  RH  052%=      5-min Rain = 0
KQU1 130611Z 21008KT 20/10 A2994 RMK A01 T02040102  RH  052%=      5-min Rain = 0
KQU1 130612Z 21008KT 20/10 A2993 RMK A01 T02040101  RH  052%=      5-min Rain = 0
KQU1 130613Z 21008KT 21/10 A2993 RMK A01 T02050101  RH  051%=      5-min Rain = 0
KQU1 130614Z 21008KT 21/10 A2993 RMK A01 T02050101  RH  051%=      5-min Rain = 0
KQU1 130615Z 21009KT 21/10 A2993 RMK A01 T02060100  RH  051%=      5-min Rain = 0
KQU1 130616Z 21009KT 21/10 A2993 RMK A01 T02060100  RH  050%=      5-min Rain = 0
KQU1 130617Z 20008KT 21/10 A2993 RMK A01 T02070100  RH  050%=      5-min Rain = 0
KQU1 130618Z 20007KT 21/10 A2993 RMK A01 T02070099  RH  050%=      5-min Rain = 0
KQU1 130619Z 20008KT 21/10 A2993 RMK A01 T02080099  RH  050%=      5-min Rain = 0
KQU1 130620Z 20008KT 21/10 A2993 RMK A01 T02080099  RH  050%=      5-min Rain = 0
KQU1 130621Z 20008KT 21/10 A2993 RMK A01 T02080099  RH  050%=      5-min Rain = 0
KQU1 130622Z 21008KT 21/10 A2993 RMK A01 T02080099  RH  050%=      5-min Rain = 0
KQU1 130623Z 21008KT 21/10 A2993 RMK A01 T02080099  RH  050%=      5-min Rain = 0
KQU1 130624Z 21008KT 21/10 A2993 RMK A01 T02070099  RH  050%=      5-min Rain = 0
KQU1 130625Z 21008KT 21/10 A2993 RMK A01 T02060099  RH  050%=      5-min Rain = 0
KQU1 130626Z 21007KT 21/10 A2993 RMK A01 T02060099  RH  050%=      5-min Rain = 0
KQU1 130627Z 21008KT 21/10 A2993 RMK A01 T02050099  RH  051%=      5-min Rain = 0
KQU1 130628Z 21007KT 20/10 A2993 RMK A01 T02040100  RH  051%=      5-min Rain = 0
KQU1 130629Z 20008KT 20/10 A2993 RMK A01 T02040099  RH  051%=      5-min Rain = 0
KQU1 130630Z 20008KT 20/10 A2993 RMK A01 T02030099  RH  051%=      5-min Rain = 0
KQU1 130631Z 20008KT 20/10 A2993 RMK A01 T02030099  RH  051%=      5-min Rain = 0
KQU1 130632Z 20008KT 20/10 A2993 RMK A01 T02030099  RH  051%=      5-min Rain = 0
KQU1 130633Z 21008KT 20/10 A2993 RMK A01 T02040099  RH  051%=      5-min Rain = 0
KQU1 130634Z 21008KT 20/10 A2993 RMK A01 T02040099  RH  051%=      5-min Rain = 0
KQU1 130635Z 21008KT 20/10 A2993 RMK A01 T02030098  RH  051%=      5-min Rain = 0
KQU1 130636Z 21008KT 20/10 A2993 RMK A01 T02030098  RH  051%=      5-min Rain = 0
KQU1 130637Z 20008KT 20/10 A2993 RMK A01 T02030098  RH  051%=      5-min Rain = 0
KQU1 130638Z 21008KT 20/10 A2993 RMK A01 T02030098  RH  051%=      5-min Rain = 0
KQU1 130639Z 21008KT 20/10 A2993 RMK A01 T02030098  RH  051%=      5-min Rain = 0
KQU1 130640Z 21008KT 20/10 A2993 RMK A01 T02030098  RH  051%=      5-min Rain = 0
KQU1 130641Z 21009KT 20/10 A2993 RMK A01 T02030097  RH  051%=      5-min Rain = 0
KQU1 130642Z 21009KT 20/10 A2993 RMK A01 T02030097  RH  051%=      5-min Rain = 0
KQU1 130643Z 21009KT 20/10 A2993 RMK A01 T02030097  RH  051%=      5-min Rain = 0
KQU1 130644Z 21009KT 20/10 A2993 RMK A01 T02030097  RH  051%=      5-min Rain = 0
KQU1 130645Z 21009KT 20/10 A2993 RMK A01 T02030097  RH  051%=      5-min Rain = 0
KQU1 130646Z 21008KT 20/10 A2993 RMK A01 T02030097  RH  050%=      5-min Rain = 0
KQU1 130647Z 21008KT 20/10 A2993 RMK A01 T02030096  RH  050%=      5-min Rain = 0
KQU1 130648Z 21007KT 20/10 A2993 RMK A01 T02040096  RH  050%=      5-min Rain = 0
KQU1 130649Z 21007KT 21/10 A2993 RMK A01 T02050095  RH  049%=      5-min Rain = 0
KQU1 130650Z 21006KT 21/10 A2993 RMK A01 T02050095  RH  049%=      5-min Rain = 0
KQU1 130651Z 21006KT 21/10 A2992 RMK A01 T02050095  RH  049%=      5-min Rain = 0
KQU1 130652Z 20007KT 21/10 A2992 RMK A01 T02050095  RH  049%=      5-min Rain = 0
KQU1 130653Z 20007KT 21/10 A2993 RMK A01 T02060095  RH  049%=      5-min Rain = 0
KQU1 130654Z 20008KT 21/10 A2993 RMK A01 T02060095  RH  049%=      5-min Rain = 0
KQU1 130655Z 20008KT 21/09 A2993 RMK A01 T02050094  RH  049%=      5-min Rain = 0
KQU1 130656Z 20008KT 21/10 A2993 RMK A01 T02050095  RH  049%=      5-min Rain = 0
KQU1 130657Z 20008KT 20/10 A2993 RMK A01 T02040095  RH  049%=      5-min Rain = 0
KQU1 130658Z 20008KT 20/10 A2993 RMK A01 T02040095  RH  050%=      5-min Rain = 0
KQU1 130659Z 20009KT 20/10 A2993 RMK A01 T02030095  RH  050%=      5-min Rain = 0
KQU1 130700Z 20008KT 20/09 A2993 RMK A01 T02030094  RH  050%=      5-min Rain = 0
KQU1 130701Z 21007KT 20/09 A2993 RMK A01 T02030094  RH  050%=      5-min Rain = 0
KQU1 130702Z 21007KT 20/09 A2992 RMK A01 T02030094  RH  050%=      5-min Rain = 0
KQU1 130703Z 21008KT 20/09 A2992 RMK A01 T02030094  RH  050%=      5-min Rain = 0
KQU1 130704Z 21008KT 20/09 A2992 RMK A01 T02030094  RH  049%=      5-min Rain = 0
KQU1 130705Z 21008KT 20/09 A2992 RMK A01 T02030093  RH  049%=      5-min Rain = 0
KQU1 130706Z 21008KT 20/09 A2992 RMK A01 T02030094  RH  049%=      5-min Rain = 0
KQU1 130707Z 20008KT 20/09 A2992 RMK A01 T02030093  RH  049%=      5-min Rain = 0
KQU1 130708Z 20008KT 20/09 A2992 RMK A01 T02030093  RH  049%=      5-min Rain = 0
KQU1 130709Z 20007KT 20/09 A2992 RMK A01 T02020093  RH  049%=      5-min Rain = 0
KQU1 130710Z 20007KT 20/09 A2992 RMK A01 T02020093  RH  049%=      5-min Rain = 0
KQU1 130711Z 20008KT 20/09 A2992 RMK A01 T02020093  RH  050%=      5-min Rain = 0
KQU1 130712Z 20007KT 20/09 A2992 RMK A01 T02010093  RH  050%=      5-min Rain = 0
KQU1 130713Z 20008KT 20/09 A2992 RMK A01 T02000094  RH  050%=      5-min Rain = 0
KQU1 130714Z 20008KT 20/09 A2993 RMK A01 T02000093  RH  050%=      5-min Rain = 0
KQU1 130715Z 20008KT 20/09 A2993 RMK A01 T01990094  RH  051%=      5-min Rain = 0
KQU1 130716Z 21008KT 20/09 A2993 RMK A01 T01990094  RH  051%=      5-min Rain = 0
KQU1 130717Z 21008KT 20/09 A2993 RMK A01 T01990093  RH  051%=      5-min Rain = 0
KQU1 130718Z 21008KT 20/09 A2993 RMK A01 T01990093  RH  051%=      5-min Rain = 0
KQU1 130719Z 21008KT 20/09 A2993 RMK A01 T01990093  RH  050%=      5-min Rain = 0
KQU1 130720Z 21008KT 20/09 A2993 RMK A01 T01990093  RH  050%=      5-min Rain = 0
KQU1 130721Z 21008KT 20/09 A2993 RMK A01 T01990093  RH  050%=      5-min Rain = 0
KQU1 130722Z 21007KT 20/09 A2993 RMK A01 T01990093  RH  050%=      5-min Rain = 0
KQU1 130723Z 21007KT 20/09 A2993 RMK A01 T01990093  RH  050%=      5-min Rain = 0
KQU1 130724Z 21007KT 20/09 A2992 RMK A01 T01990093  RH  050%=      5-min Rain = 0
KQU1 130725Z 21007KT 20/09 A2992 RMK A01 T01990093  RH  050%=      5-min Rain = 0
KQU1 130726Z 21007KT 20/09 A2992 RMK A01 T01980093  RH  051%=      5-min Rain = 0
KQU1 130727Z 21007KT 20/09 A2992 RMK A01 T01970093  RH  051%=      5-min Rain = 0
KQU1 130728Z 21008KT 20/09 A2993 RMK A01 T01960093  RH  051%=      5-min Rain = 0
KQU1 130729Z 21008KT 20/09 A2993 RMK A01 T01950093  RH  052%=      5-min Rain = 0
KQU1 130730Z 22007KT 20/09 A2993 RMK A01 T01950093  RH  052%=      5-min Rain = 0
KQU1 130731Z 21007KT 20/09 A2993 RMK A01 T01950093  RH  052%=      5-min Rain = 0
KQU1 130732Z 21006KT 19/09 A2993 RMK A01 T01940093  RH  052%=      5-min Rain = 0
KQU1 130733Z 21005KT 19/09 A2992 RMK A01 T01940093  RH  052%=      5-min Rain = 0
KQU1 130734Z 21005KT 19/09 A2992 RMK A01 T01940093  RH  052%=      5-min Rain = 0
KQU1 130735Z 21006KT 19/09 A2992 RMK A01 T01940093  RH  052%=      5-min Rain = 0
KQU1 130736Z 21005KT 19/09 A2992 RMK A01 T01940093  RH  052%=      5-min Rain = 0
KQU1 130737Z 21006KT 19/09 A2992 RMK A01 T01940093  RH  052%=      5-min Rain = 0
KQU1 130738Z 21006KT 19/09 A2992 RMK A01 T01930094  RH  052%=      5-min Rain = 0
KQU1 130739Z 21006KT 19/09 A2992 RMK A01 T01930094  RH  053%=      5-min Rain = 0
KQU1 130740Z 21006KT 19/09 A2992 RMK A01 T01930094  RH  053%=      5-min Rain = 0
KQU1 130741Z 21006KT 19/09 A2992 RMK A01 T01920094  RH  053%=      5-min Rain = 0
KQU1 130742Z 21006KT 19/09 A2992 RMK A01 T01920094  RH  053%=      5-min Rain = 0
KQU1 130743Z 21006KT 19/09 A2992 RMK A01 T01920094  RH  053%=      5-min Rain = 0
KQU1 130744Z 21006KT 19/09 A2992 RMK A01 T01910094  RH  053%=      5-min Rain = 0
KQU1 130745Z 21006KT 19/09 A2992 RMK A01 T01910094  RH  053%=      5-min Rain = 0
KQU1 130746Z 20006KT 19/10 A2992 RMK A01 T01910095  RH  054%=      5-min Rain = 0
KQU1 130747Z 20006KT 19/10 A2992 RMK A01 T01900095  RH  054%=      5-min Rain = 0
KQU1 130748Z 20006KT 19/10 A2992 RMK A01 T01900095  RH  054%=      5-min Rain = 0
KQU1 130749Z 20006KT 19/10 A2992 RMK A01 T01900095  RH  054%=      5-min Rain = 0
KQU1 130750Z 20006KT 19/10 A2992 RMK A01 T01900095  RH  054%=      5-min Rain = 0
KQU1 130751Z 19005KT 19/10 A2992 RMK A01 T01900095  RH  054%=      5-min Rain = 0
KQU1 130752Z 19006KT 19/09 A2992 RMK A01 T01900094  RH  054%=      5-min Rain = 0
KQU1 130753Z 19005KT 19/09 A2992 RMK A01 T01900094  RH  054%=      5-min Rain = 0
KQU1 130754Z 19005KT 19/10 A2992 RMK A01 T01900095  RH  054%=      5-min Rain = 0
KQU1 130755Z 19005KT 19/10 A2992 RMK A01 T01890095  RH  054%=      5-min Rain = 0
KQU1 130756Z 20006KT 19/10 A2992 RMK A01 T01890095  RH  054%=      5-min Rain = 0
KQU1 130757Z 20005KT 19/10 A2992 RMK A01 T01880096  RH  055%=      5-min Rain = 0
KQU1 130758Z 20006KT 19/10 A2992 RMK A01 T01870096  RH  055%=      5-min Rain = 0
KQU1 130759Z 20006KT 19/10 A2992 RMK A01 T01870096  RH  055%=      5-min Rain = 0
KQU1 130800Z 20005KT 19/10 A2992 RMK A01 T01860096  RH  056%=      5-min Rain = 0
KQU1 130801Z 20005KT 19/10 A2992 RMK A01 T01850096  RH  056%=      5-min Rain = 0
KQU1 130802Z 20005KT 19/10 A2992 RMK A01 T01850096  RH  056%=      5-min Rain = 0
KQU1 130803Z 20005KT 18/10 A2992 RMK A01 T01840096  RH  056%=      5-min Rain = 0
KQU1 130804Z 21005KT 18/10 A2992 RMK A01 T01840096  RH  057%=      5-min Rain = 0
KQU1 130805Z 21005KT 18/10 A2992 RMK A01 T01830096  RH  057%=      5-min Rain = 0
KQU1 130806Z 20005KT 18/10 A2992 RMK A01 T01840096  RH  057%=      5-min Rain = 0
KQU1 130807Z 20006KT 18/10 A2992 RMK A01 T01840096  RH  056%=      5-min Rain = 0
KQU1 130808Z 19005KT 19/10 A2992 RMK A01 T01850096  RH  056%=      5-min Rain = 0
KQU1 130809Z 19005KT 19/10 A2992 RMK A01 T01860096  RH  056%=      5-min Rain = 0
KQU1 130810Z 19005KT 19/10 A2992 RMK A01 T01860096  RH  056%=      5-min Rain = 0
KQU1 130811Z 19005KT 19/10 A2992 RMK A01 T01880096  RH  055%=      5-min Rain = 0
KQU1 130812Z 19005KT 19/10 A2992 RMK A01 T01890095  RH  055%=      5-min Rain = 0
KQU1 130813Z 19006KT 19/10 A2992 RMK A01 T01890095  RH  054%=      5-min Rain = 0
KQU1 130814Z 19006KT 19/10 A2992 RMK A01 T01890095  RH  054%=      5-min Rain = 0
KQU1 130815Z 20006KT 19/10 A2993 RMK A01 T01890095  RH  054%=      5-min Rain = 0
KQU1 130816Z 20006KT 19/10 A2993 RMK A01 T01890095  RH  054%=      5-min Rain = 0
KQU1 130817Z 20006KT 19/10 A2993 RMK A01 T01890096  RH  055%=      5-min Rain = 0
KQU1 130818Z 20006KT 19/10 A2993 RMK A01 T01890096  RH  055%=      5-min Rain = 0
KQU1 130819Z 20006KT 19/10 A2993 RMK A01 T01880096  RH  055%=      5-min Rain = 0
KQU1 130820Z 20005KT 19/10 A2992 RMK A01 T01880096  RH  055%=      5-min Rain = 0
KQU1 130821Z 20005KT 19/10 A2992 RMK A01 T01870096  RH  055%=      5-min Rain = 0
KQU1 130822Z 20004KT 19/10 A2992 RMK A01 T01870096  RH  055%=      5-min Rain = 0
KQU1 130823Z 20004KT 19/10 A2992 RMK A01 T01870096  RH  056%=      5-min Rain = 0
KQU1 130824Z 19004KT 19/10 A2992 RMK A01 T01860096  RH  056%=      5-min Rain = 0
KQU1 130825Z 20004KT 19/10 A2992 RMK A01 T01860096  RH  056%=      5-min Rain = 0
KQU1 130826Z 20005KT 19/10 A2992 RMK A01 T01860096  RH  056%=      5-min Rain = 0
KQU1 130827Z 20005KT 19/10 A2992 RMK A01 T01850096  RH  056%=      5-min Rain = 0
KQU1 130828Z 20005KT 19/10 A2992 RMK A01 T01850096  RH  056%=      5-min Rain = 0
KQU1 130829Z 20006KT 19/10 A2992 RMK A01 T01850096  RH  056%=      5-min Rain = 0
KQU1 130830Z 20006KT 19/10 A2992 RMK A01 T01850096  RH  056%=      5-min Rain = 0
KQU1 130831Z 20006KT 18/10 A2992 RMK A01 T01840097  RH  057%=      5-min Rain = 0
KQU1 130832Z 20006KT 18/10 A2992 RMK A01 T01830097  RH  057%=      5-min Rain = 0
KQU1 130833Z 20006KT 18/10 A2992 RMK A01 T01830097  RH  057%=      5-min Rain = 0
KQU1 130834Z 20006KT 18/10 A2992 RMK A01 T01820097  RH  058%=      5-min Rain = 0
KQU1 130835Z 20006KT 18/10 A2992 RMK A01 T01820097  RH  058%=      5-min Rain = 0
KQU1 130836Z 20006KT 18/10 A2992 RMK A01 T01810097  RH  058%=      5-min Rain = 0
KQU1 130837Z 20005KT 18/10 A2992 RMK A01 T01810097  RH  058%=      5-min Rain = 0
KQU1 130838Z 20005KT 18/10 A2992 RMK A01 T01810097  RH  058%=      5-min Rain = 0
KQU1 130839Z 20005KT 18/10 A2992 RMK A01 T01810097  RH  058%=      5-min Rain = 0
KQU1 130840Z 20004KT 18/10 A2992 RMK A01 T01810097  RH  058%=      5-min Rain = 0
KQU1 130841Z 20005KT 18/10 A2992 RMK A01 T01810097  RH  058%=      5-min Rain = 0
KQU1 130842Z 21005KT 18/10 A2992 RMK A01 T01810097  RH  058%=      5-min Rain = 0
KQU1 130843Z 21005KT 18/10 A2992 RMK A01 T01810097  RH  058%=      5-min Rain = 0
KQU1 130844Z 21005KT 18/10 A2992 RMK A01 T01810097  RH  058%=      5-min Rain = 0
KQU1 130845Z 21005KT 18/10 A2993 RMK A01 T01800097  RH  058%=      5-min Rain = 0
KQU1 130846Z 22005KT 18/10 A2993 RMK A01 T01810097  RH  058%=      5-min Rain = 0
KQU1 130847Z 22005KT 18/10 A2993 RMK A01 T01810097  RH  058%=      5-min Rain = 0
KQU1 130848Z 23006KT 18/10 A2993 RMK A01 T01810097  RH  058%=      5-min Rain = 0
KQU1 130849Z 23006KT 18/10 A2993 RMK A01 T01810098  RH  058%=      5-min Rain = 0
KQU1 130850Z 24006KT 18/10 A2993 RMK A01 T01800098  RH  058%=      5-min Rain = 0
KQU1 130851Z 24006KT 18/10 A2993 RMK A01 T01800097  RH  058%=      5-min Rain = 0
KQU1 130852Z 24006KT 18/10 A2993 RMK A01 T01800097  RH  058%=      5-min Rain = 0
KQU1 130853Z 25006KT 18/10 A2993 RMK A01 T01800097  RH  058%=      5-min Rain = 0
KQU1 130854Z 25005KT 18/10 A2993 RMK A01 T01790097  RH  059%=      5-min Rain = 0
KQU1 130855Z 25004KT 18/10 A2993 RMK A01 T01790097  RH  059%=      5-min Rain = 0
KQU1 130856Z 24003KT 18/10 A2992 RMK A01 T01780097  RH  059%=      5-min Rain = 0
KQU1 130857Z 24003KT 18/10 A2992 RMK A01 T01780097  RH  059%=      5-min Rain = 0
KQU1 130858Z 25002KT 18/10 A2992 RMK A01 T01770097  RH  059%=      5-min Rain = 0
KQU1 130859Z 25002KT 18/10 A2992 RMK A01 T01770097  RH  059%=      5-min Rain = 0
KQU1 130900Z 25002KT 18/10 A2992 RMK A01 T01770097  RH  059%=      5-min Rain = 0
KQU1 130901Z 25002KT 18/10 A2992 RMK A01 T01760097  RH  059%=      5-min Rain = 0
KQU1 130902Z 25002KT 18/10 A2992 RMK A01 T01770097  RH  059%=      5-min Rain = 0
KQU1 130903Z 26001KT 18/10 A2992 RMK A01 T01770097  RH  059%=      5-min Rain = 0
KQU1 130904Z 27001KT 18/10 A2992 RMK A01 T01770097  RH  059%=      5-min Rain = 0
KQU1 130905Z 27001KT 18/10 A2992 RMK A01 T01770098  RH  060%=      5-min Rain = 0
KQU1 130906Z 27002KT 18/10 A2992 RMK A01 T01770098  RH  060%=      5-min Rain = 0
KQU1 130907Z 27002KT 18/10 A2992 RMK A01 T01760098  RH  060%=      5-min Rain = 0
KQU1 130908Z 27003KT 18/10 A2992 RMK A01 T01750099  RH  061%=      5-min Rain = 0
KQU1 130909Z 27003KT 17/10 A2992 RMK A01 T01730100  RH  062%=      5-min Rain = 0
KQU1 130910Z 26003KT 17/10 A2992 RMK A01 T01720102  RH  063%=      5-min Rain = 0
KQU1 130911Z 26002KT 17/10 A2992 RMK A01 T01700103  RH  065%=      5-min Rain = 0
KQU1 130912Z 25002KT 17/10 A2992 RMK A01 T01690104  RH  065%=      5-min Rain = 0
KQU1 130913Z 25001KT 17/11 A2992 RMK A01 T01680105  RH  066%=      5-min Rain = 0
KQU1 130914Z 24000KT 17/11 A2992 RMK A01 T01670107  RH  067%=      5-min Rain = 0
KQU1 130915Z 24000KT 17/11 A2992 RMK A01 T01670108  RH  068%=      5-min Rain = 0
KQU1 130916Z 26000KT 17/11 A2992 RMK A01 T01670107  RH  068%=      5-min Rain = 0
KQU1 130917Z 26001KT 17/11 A2992 RMK A01 T01670107  RH  068%=      5-min Rain = 0
KQU1 130918Z 27002KT 17/11 A2992 RMK A01 T01680108  RH  068%=      5-min Rain = 0
KQU1 130919Z 26002KT 17/11 A2992 RMK A01 T01680109  RH  068%=      5-min Rain = 0
KQU1 130920Z 26003KT 17/11 A2992 RMK A01 T01680108  RH  068%=      5-min Rain = 0
KQU1 130921Z 26003KT 17/11 A2992 RMK A01 T01670108  RH  068%=      5-min Rain = 0
KQU1 130922Z 25003KT 17/11 A2992 RMK A01 T01650107  RH  068%=      5-min Rain = 0
KQU1 130923Z 24002KT 16/11 A2992 RMK A01 T01640106  RH  068%=      5-min Rain = 0
KQU1 130924Z 24002KT 16/11 A2992 RMK A01 T01640105  RH  068%=      5-min Rain = 0
KQU1 130925Z 25001KT 16/11 A2992 RMK A01 T01630105  RH  068%=      5-min Rain = 0
KQU1 130926Z 25001KT 16/10 A2992 RMK A01 T01620104  RH  069%=      5-min Rain = 0
KQU1 130927Z 26002KT 16/10 A2992 RMK A01 T01610104  RH  069%=      5-min Rain = 0
KQU1 130928Z 25002KT 16/10 A2992 RMK A01 T01610104  RH  069%=      5-min Rain = 0
KQU1 130929Z 24002KT 16/10 A2992 RMK A01 T01600104  RH  069%=      5-min Rain = 0
KQU1 130930Z 24002KT 16/10 A2992 RMK A01 T01600104  RH  069%=      5-min Rain = 0
KQU1 130931Z 23001KT 16/10 A2992 RMK A01 T01600103  RH  069%=      5-min Rain = 0
KQU1 130932Z 22001KT 16/10 A2992 RMK A01 T01600103  RH  069%=      5-min Rain = 0
KQU1 130933Z 21001KT 16/10 A2992 RMK A01 T01600102  RH  069%=      5-min Rain = 0
KQU1 130934Z 20001KT 16/10 A2992 RMK A01 T01600102  RH  069%=      5-min Rain = 0
KQU1 130935Z 19000KT 16/10 A2992 RMK A01 T01600102  RH  068%=      5-min Rain = 0
KQU1 130936Z 00000KT 16/10 A2992 RMK A01 T01600102  RH  068%=      5-min Rain = 0
KQU1 130937Z 00000KT 16/10 A2992 RMK A01 T01600102  RH  068%=      5-min Rain = 0
KQU1 130938Z 27001KT 16/10 A2992 RMK A01 T01610103  RH  068%=      5-min Rain = 0
KQU1 130939Z 28002KT 16/10 A2992 RMK A01 T01610103  RH  068%=      5-min Rain = 0
KQU1 130940Z 27002KT 16/10 A2992 RMK A01 T01600104  RH  069%=      5-min Rain = 0
KQU1 130941Z 25001KT 16/10 A2992 RMK A01 T01590103  RH  070%=      5-min Rain = 0
KQU1 130942Z 23001KT 16/10 A2992 RMK A01 T01580104  RH  070%=      5-min Rain = 0
KQU1 130943Z 23000KT 16/10 A2992 RMK A01 T01580104  RH  070%=      5-min Rain = 0
KQU1 130944Z 00000KT 16/10 A2992 RMK A01 T01570104  RH  071%=      5-min Rain = 0
KQU1 130945Z 00000KT 16/10 A2992 RMK A01 T01570104  RH  071%=      5-min Rain = 0
KQU1 130946Z 00000KT 16/10 A2992 RMK A01 T01560104  RH  071%=      5-min Rain = 0
KQU1 130947Z 00000KT 16/10 A2992 RMK A01 T01550104  RH  072%=      5-min Rain = 0
KQU1 130948Z 24001KT 16/10 A2992 RMK A01 T01550104  RH  072%=      5-min Rain = 0
KQU1 130949Z 23001KT 15/10 A2992 RMK A01 T01540103  RH  071%=      5-min Rain = 0
KQU1 130950Z 22000KT 15/10 A2992 RMK A01 T01540103  RH  071%=      5-min Rain = 0
KQU1 130951Z 00000KT 15/10 A2991 RMK A01 T01530102  RH  072%=      5-min Rain = 0
KQU1 130952Z 00000KT 15/10 A2991 RMK A01 T01530102  RH  072%=      5-min Rain = 0
KQU1 130953Z 00000KT 15/10 A2991 RMK A01 T01530102  RH  072%=      5-min Rain = 0
KQU1 130954Z 00000KT 15/10 A2991 RMK A01 T01520103  RH  072%=      5-min Rain = 0
KQU1 130955Z 31001KT 15/10 A2991 RMK A01 T01520103  RH  072%=      5-min Rain = 0
KQU1 130956Z 29002KT 15/10 A2991 RMK A01 T01530103  RH  072%=      5-min Rain = 0
KQU1 130957Z 27002KT 15/10 A2991 RMK A01 T01540103  RH  072%=      5-min Rain = 0
KQU1 130958Z 26001KT 15/10 A2991 RMK A01 T01540103  RH  072%=      5-min Rain = 0
KQU1 130959Z 26001KT 15/10 A2991 RMK A01 T01540103  RH  072%=      5-min Rain = 0
KQU1 131000Z 27000KT 15/10 A2991 RMK A01 T01540103  RH  072%=      5-min Rain = 0
KQU1 131001Z 28000KT 15/10 A2991 RMK A01 T01540103  RH  072%=      5-min Rain = 0
KQU1 131002Z 31001KT 15/10 A2992 RMK A01 T01540103  RH  072%=      5-min Rain = 0
KQU1 131003Z 30002KT 15/10 A2992 RMK A01 T01530104  RH  072%=      5-min Rain = 0
KQU1 131004Z 30002KT 15/10 A2992 RMK A01 T01520104  RH  073%=      5-min Rain = 0
KQU1 131005Z 30002KT 15/10 A2992 RMK A01 T01520104  RH  073%=      5-min Rain = 0
KQU1 131006Z 31002KT 15/10 A2992 RMK A01 T01510104  RH  073%=      5-min Rain = 0
KQU1 131007Z 31002KT 15/10 A2992 RMK A01 T01510103  RH  073%=      5-min Rain = 0
KQU1 131008Z 31002KT 15/10 A2992 RMK A01 T01500103  RH  074%=      5-min Rain = 0
KQU1 131009Z 31002KT 15/10 A2992 RMK A01 T01500104  RH  074%=      5-min Rain = 0
KQU1 131010Z 32001KT 15/10 A2991 RMK A01 T01490104  RH  074%=      5-min Rain = 0
KQU1 131011Z 33002KT 15/11 A2991 RMK A01 T01490105  RH  075%=      5-min Rain = 0
KQU1 131012Z 33002KT 15/11 A2991 RMK A01 T01500106  RH  075%=      5-min Rain = 0
KQU1 131013Z 32003KT 15/11 A2991 RMK A01 T01510107  RH  075%=      5-min Rain = 0
KQU1 131014Z 31002KT 15/11 A2991 RMK A01 T01510107  RH  075%=      5-min Rain = 0
KQU1 131015Z 30002KT 15/11 A2991 RMK A01 T01510107  RH  075%=      5-min Rain = 0
KQU1 131016Z 30002KT 15/11 A2991 RMK A01 T01510107  RH  075%=      5-min Rain = 0
KQU1 131017Z 30002KT 15/11 A2991 RMK A01 T01510106  RH  074%=      5-min Rain = 0
KQU1 131018Z 30002KT 15/10 A2991 RMK A01 T01500104  RH  074%=      5-min Rain = 0
KQU1 131019Z 31002KT 15/10 A2991 RMK A01 T01500104  RH  074%=      5-min Rain = 0
KQU1 131020Z 31003KT 15/10 A2991 RMK A01 T01490104  RH  074%=      5-min Rain = 0
KQU1 131021Z 31004KT 15/10 A2991 RMK A01 T01490104  RH  075%=      5-min Rain = 0
KQU1 131022Z 31004KT 15/11 A2991 RMK A01 T01490105  RH  075%=      5-min Rain = 0
KQU1 131023Z 31003KT 15/11 A2991 RMK A01 T01490106  RH  076%=      5-min Rain = 0
KQU1 131024Z 32003KT 15/11 A2991 RMK A01 T01490107  RH  076%=      5-min Rain = 0
KQU1 131025Z 32002KT 15/11 A2991 RMK A01 T01490107  RH  076%=      5-min Rain = 0
KQU1 131026Z 32002KT 15/11 A2991 RMK A01 T01480106  RH  076%=      5-min Rain = 0
KQU1 131027Z 31002KT 15/11 A2991 RMK A01 T01480106  RH  076%=      5-min Rain = 0
KQU1 131028Z 30002KT 15/11 A2991 RMK A01 T01480105  RH  075%=      5-min Rain = 0
KQU1 131029Z 29002KT 15/11 A2991 RMK A01 T01480105  RH  075%=      5-min Rain = 0
KQU1 131030Z 28003KT 15/10 A2991 RMK A01 T01470104  RH  075%=      5-min Rain = 0
KQU1 131031Z 28002KT 15/10 A2991 RMK A01 T01470104  RH  075%=      5-min Rain = 0
KQU1 131032Z 28002KT 15/10 A2991 RMK A01 T01470103  RH  075%=      5-min Rain = 0
KQU1 131033Z 28001KT 15/10 A2991 RMK A01 T01470103  RH  075%=      5-min Rain = 0
KQU1 131034Z 28002KT 15/10 A2991 RMK A01 T01460102  RH  075%=      5-min Rain = 0
KQU1 131035Z 28002KT 15/10 A2991 RMK A01 T01460103  RH  075%=      5-min Rain = 0
KQU1 131036Z 28001KT 15/10 A2991 RMK A01 T01460102  RH  075%=      5-min Rain = 0
KQU1 131037Z 29000KT 15/10 A2991 RMK A01 T01470102  RH  074%=      5-min Rain = 0
KQU1 131038Z 30000KT 15/10 A2991 RMK A01 T01480102  RH  074%=      5-min Rain = 0
KQU1 131039Z 32000KT 15/10 A2991 RMK A01 T01490102  RH  073%=      5-min Rain = 0
KQU1 131040Z 00000KT 15/10 A2991 RMK A01 T01510102  RH  073%=      5-min Rain = 0
KQU1 131041Z 29001KT 15/10 A2991 RMK A01 T01510102  RH  073%=      5-min Rain = 0
KQU1 131042Z 29000KT 15/10 A2991 RMK A01 T01510102  RH  073%=      5-min Rain = 0
KQU1 131043Z 28001KT 15/10 A2991 RMK A01 T01510102  RH  073%=      5-min Rain = 0
KQU1 131044Z 28000KT 15/10 A2991 RMK A01 T01500102  RH  073%=      5-min Rain = 0
KQU1 131045Z 35000KT 15/10 A2991 RMK A01 T01500102  RH  073%=      5-min Rain = 0
KQU1 131046Z 36001KT 15/10 A2991 RMK A01 T01490102  RH  073%=      5-min Rain = 0
KQU1 131047Z 01001KT 15/10 A2991 RMK A01 T01490104  RH  074%=      5-min Rain = 0
KQU1 131048Z 01001KT 15/11 A2991 RMK A01 T01490105  RH  075%=      5-min Rain = 0
KQU1 131049Z 05001KT 15/11 A2991 RMK A01 T01500107  RH  075%=      5-min Rain = 0
KQU1 131050Z 06001KT 15/11 A2991 RMK A01 T01500108  RH  076%=      5-min Rain = 0
KQU1 131051Z 06000KT 15/11 A2991 RMK A01 T01510109  RH  076%=      5-min Rain = 0
KQU1 131052Z 00000KT 15/11 A2991 RMK A01 T01520109  RH  076%=      5-min Rain = 0
KQU1 131053Z 00000KT 15/11 A2991 RMK A01 T01510106  RH  074%=      5-min Rain = 0
KQU1 131054Z 35000KT 15/10 A2991 RMK A01 T01500104  RH  074%=      5-min Rain = 0
KQU1 131055Z 00000KT 15/11 A2991 RMK A01 T01490105  RH  075%=      5-min Rain = 0
KQU1 131056Z 00000KT 15/11 A2991 RMK A01 T01490106  RH  076%=      5-min Rain = 0
KQU1 131057Z 36001KT 15/11 A2991 RMK A01 T01480107  RH  076%=      5-min Rain = 0
KQU1 131058Z 00001KT 15/11 A2991 RMK A01 T01470106  RH  077%=      5-min Rain = 0
KQU1 131059Z 00001KT 15/11 A2991 RMK A01 T01460106  RH  077%=      5-min Rain = 0
KQU1 131100Z 02001KT 15/11 A2991 RMK A01 T01460105  RH  076%=      5-min Rain = 0
KQU1 131101Z 02001KT 15/11 A2991 RMK A01 T01460105  RH  076%=      5-min Rain = 0
KQU1 131102Z 03001KT 15/11 A2991 RMK A01 T01470105  RH  076%=      5-min Rain = 0
KQU1 131103Z 04001KT 15/11 A2991 RMK A01 T01470107  RH  076%=      5-min Rain = 0
KQU1 131104Z 05001KT 15/11 A2991 RMK A01 T01480105  RH  075%=      5-min Rain = 0
KQU1 131105Z 05000KT 15/10 A2991 RMK A01 T01480103  RH  074%=      5-min Rain = 0
KQU1 131106Z 04000KT 15/10 A2991 RMK A01 T01480103  RH  074%=      5-min Rain = 0
KQU1 131107Z 04000KT 15/10 A2991 RMK A01 T01480104  RH  075%=      5-min Rain = 0
KQU1 131108Z 00000KT 15/11 A2991 RMK A01 T01480105  RH  076%=      5-min Rain = 0
KQU1 131109Z 00000KT 15/11 A2991 RMK A01 T01470106  RH  076%=      5-min Rain = 0
KQU1 131110Z 00000KT 15/11 A2991 RMK A01 T01470107  RH  077%=      5-min Rain = 0
KQU1 131111Z 00000KT 15/11 A2991 RMK A01 T01460107  RH  077%=      5-min Rain = 0
KQU1 131112Z 00000KT 15/11 A2991 RMK A01 T01450106  RH  077%=      5-min Rain = 0
KQU1 131113Z 00000KT 15/11 A2991 RMK A01 T01450105  RH  077%=      5-min Rain = 0
KQU1 131114Z 00000KT 15/10 A2991 RMK A01 T01450104  RH  076%=      5-min Rain = 0
KQU1 131115Z 00000KT 14/10 A2991 RMK A01 T01440104  RH  076%=      5-min Rain = 0
KQU1 131116Z 32000KT 14/10 A2991 RMK A01 T01440103  RH  077%=      5-min Rain = 0
KQU1 131117Z 33001KT 14/10 A2991 RMK A01 T01430103  RH  077%=      5-min Rain = 0
KQU1 131118Z 34001KT 14/10 A2991 RMK A01 T01430103  RH  077%=      5-min Rain = 0
KQU1 131119Z 33001KT 14/10 A2991 RMK A01 T01430103  RH  077%=      5-min Rain = 0
KQU1 131120Z 35001KT 14/10 A2991 RMK A01 T01420102  RH  077%=      5-min Rain = 0
KQU1 131121Z 35000KT 14/10 A2991 RMK A01 T01420102  RH  077%=      5-min Rain = 0
KQU1 131122Z 00000KT 14/10 A2991 RMK A01 T01420102  RH  077%=      5-min Rain = 0
KQU1 131123Z 00000KT 14/10 A2991 RMK A01 T01420102  RH  077%=      5-min Rain = 0
KQU1 131124Z 00000KT 14/10 A2991 RMK A01 T01420102  RH  077%=      5-min Rain = 0
KQU1 131125Z 00000KT 14/10 A2991 RMK A01 T01420102  RH  077%=      5-min Rain = 0
KQU1 131126Z 17000KT 14/10 A2991 RMK A01 T01410102  RH  077%=      5-min Rain = 0
KQU1 131127Z 18001KT 14/10 A2991 RMK A01 T01410102  RH  077%=      5-min Rain = 0
KQU1 131128Z 18001KT 14/10 A2991 RMK A01 T01410101  RH  077%=      5-min Rain = 0
KQU1 131129Z 20001KT 14/10 A2991 RMK A01 T01410101  RH  077%=      5-min Rain = 0
KQU1 131130Z 22001KT 14/10 A2991 RMK A01 T01420101  RH  077%=      5-min Rain = 0
KQU1 131131Z 23001KT 14/10 A2991 RMK A01 T01420101  RH  076%=      5-min Rain = 0
KQU1 131132Z 24001KT 14/10 A2991 RMK A01 T01420101  RH  076%=      5-min Rain = 0
KQU1 131133Z 25001KT 14/10 A2991 RMK A01 T01410100  RH  076%=      5-min Rain = 0
KQU1 131134Z 26001KT 14/10 A2991 RMK A01 T01410100  RH  076%=      5-min Rain = 0
KQU1 131135Z 27002KT 14/10 A2991 RMK A01 T01400100  RH  077%=      5-min Rain = 0
KQU1 131136Z 28002KT 14/10 A2991 RMK A01 T01400100  RH  077%=      5-min Rain = 0
KQU1 131137Z 28003KT 14/10 A2991 RMK A01 T01390100  RH  077%=      5-min Rain = 0
KQU1 131138Z 28003KT 14/10 A2992 RMK A01 T01390100  RH  077%=      5-min Rain = 0
KQU1 131139Z 28003KT 14/10 A2992 RMK A01 T01380100  RH  078%=      5-min Rain = 0
KQU1 131140Z 28002KT 14/10 A2992 RMK A01 T01380100  RH  078%=      5-min Rain = 0
KQU1 131141Z 28002KT 14/10 A2992 RMK A01 T01380100  RH  078%=      5-min Rain = 0
KQU1 131142Z 27002KT 14/10 A2992 RMK A01 T01380100  RH  078%=      5-min Rain = 0
KQU1 131143Z 26001KT 14/10 A2992 RMK A01 T01380100  RH  078%=      5-min Rain = 0
KQU1 131144Z 26001KT 14/10 A2992 RMK A01 T01380100  RH  078%=      5-min Rain = 0
KQU1 131145Z 27001KT 14/10 A2992 RMK A01 T01380100  RH  078%=      5-min Rain = 0
KQU1 131146Z 27000KT 14/10 A2992 RMK A01 T01380100  RH  078%=      5-min Rain = 0
KQU1 131147Z 27001KT 14/10 A2992 RMK A01 T01380100  RH  078%=      5-min Rain = 0
KQU1 131148Z 28002KT 14/10 A2992 RMK A01 T01380100  RH  078%=      5-min Rain = 0
KQU1 131149Z 30002KT 14/10 A2992 RMK A01 T01380100  RH  078%=      5-min Rain = 0
KQU1 131150Z 31002KT 14/10 A2992 RMK A01 T01380101  RH  078%=      5-min Rain = 0
KQU1 131151Z 31003KT 14/10 A2992 RMK A01 T01390101  RH  078%=      5-min Rain = 0
KQU1 131152Z 30004KT 14/10 A2992 RMK A01 T01380101  RH  078%=      5-min Rain = 0
KQU1 131153Z 29004KT 14/10 A2992 RMK A01 T01380102  RH  079%=      5-min Rain = 0
KQU1 131154Z 29004KT 14/10 A2992 RMK A01 T01380103  RH  080%=      5-min Rain = 0
KQU1 131155Z 29004KT 14/10 A2992 RMK A01 T01380104  RH  080%=      5-min Rain = 0
KQU1 131156Z 30004KT 14/11 A2992 RMK A01 T01380105  RH  080%=      5-min Rain = 0
KQU1 131157Z 30003KT 14/10 A2992 RMK A01 T01380104  RH  080%=      5-min Rain = 0
KQU1 131158Z 30003KT 14/10 A2992 RMK A01 T01380104  RH  080%=      5-min Rain = 0
KQU1 131159Z 30002KT 14/10 A2992 RMK A01 T01380103  RH  079%=      5-min Rain = 0
KQU1 131200Z 30002KT 14/10 A2992 RMK A01 T01380102  RH  079%=      5-min Rain = 0
KQU1 131201Z 30003KT 14/10 A2992 RMK A01 T01380102  RH  079%=      5-min Rain = 0
KQU1 131202Z 29003KT 14/10 A2992 RMK A01 T01380102  RH  079%=      5-min Rain = 0
KQU1 131203Z 29003KT 14/10 A2992 RMK A01 T01380101  RH  078%=      5-min Rain = 0
KQU1 131204Z 29003KT 14/10 A2992 RMK A01 T01380101  RH  078%=      5-min Rain = 0
KQU1 131205Z 28003KT 14/10 A2992 RMK A01 T01370099  RH  078%=      5-min Rain = 0
KQU1 131206Z 28003KT 14/10 A2992 RMK A01 T01370099  RH  078%=      5-min Rain = 0
KQU1 131207Z 26002KT 14/10 A2992 RMK A01 T01370099  RH  078%=      5-min Rain = 0
KQU1 131208Z 25002KT 14/10 A2992 RMK A01 T01370099  RH  077%=      5-min Rain = 0
KQU1 131209Z 25002KT 14/10 A2992 RMK A01 T01380099  RH  077%=      5-min Rain = 0
KQU1 131210Z 24002KT 14/10 A2992 RMK A01 T01370098  RH  077%=      5-min Rain = 0
KQU1 131211Z 25002KT 14/10 A2992 RMK A01 T01380098  RH  077%=      5-min Rain = 0
KQU1 131212Z 26002KT 14/10 A2992 RMK A01 T01380098  RH  077%=      5-min Rain = 0
KQU1 131213Z 27002KT 14/10 A2992 RMK A01 T01380098  RH  077%=      5-min Rain = 0
KQU1 131214Z 26002KT 14/10 A2992 RMK A01 T01380098  RH  077%=      5-min Rain = 0
KQU1 131215Z 26001KT 14/10 A2992 RMK A01 T01380098  RH  077%=      5-min Rain = 0
KQU1 131216Z 27000KT 14/10 A2992 RMK A01 T01380098  RH  077%=      5-min Rain = 0
KQU1 131217Z 29000KT 14/10 A2992 RMK A01 T01380098  RH  077%=      5-min Rain = 0
KQU1 131218Z 29000KT 14/10 A2992 RMK A01 T01380099  RH  077%=      5-min Rain = 0
KQU1 131219Z 36001KT 14/10 A2992 RMK A01 T01400099  RH  076%=      5-min Rain = 0
KQU1 131220Z 00000KT 14/10 A2992 RMK A01 T01420101  RH  076%=      5-min Rain = 0
KQU1 131221Z 00000KT 14/10 A2992 RMK A01 T01430100  RH  076%=      5-min Rain = 0
KQU1 131222Z 00000KT 14/10 A2992 RMK A01 T01430100  RH  075%=      5-min Rain = 0
KQU1 131223Z 33000KT 14/10 A2992 RMK A01 T01430099  RH  075%=      5-min Rain = 0
KQU1 131224Z 29001KT 14/10 A2992 RMK A01 T01420099  RH  075%=      5-min Rain = 0
KQU1 131225Z 29001KT 14/10 A2992 RMK A01 T01410100  RH  076%=      5-min Rain = 0
KQU1 131226Z 29001KT 14/10 A2992 RMK A01 T01400100  RH  077%=      5-min Rain = 0
KQU1 131227Z 28001KT 14/10 A2992 RMK A01 T01380100  RH  078%=      5-min Rain = 0
KQU1 131228Z 27003KT 14/10 A2992 RMK A01 T01370101  RH  079%=      5-min Rain = 0
KQU1 131229Z 27003KT 14/10 A2992 RMK A01 T01360102  RH  080%=      5-min Rain = 0
KQU1 131230Z 27005KT 14/10 A2992 RMK A01 T01350100  RH  079%=      5-min Rain = 0
KQU1 131231Z 27005KT 14/10 A2992 RMK A01 T01350099  RH  079%=      5-min Rain = 0
KQU1 131232Z 27004KT 14/10 A2992 RMK A01 T01350099  RH  079%=      5-min Rain = 0
KQU1 131233Z 27003KT 14/10 A2992 RMK A01 T01350099  RH  079%=      5-min Rain = 0
KQU1 131234Z 27003KT 14/10 A2992 RMK A01 T01350098  RH  078%=      5-min Rain = 0
KQU1 131235Z 27003KT 14/10 A2992 RMK A01 T01350098  RH  078%=      5-min Rain = 0
KQU1 131236Z 27003KT 14/10 A2992 RMK A01 T01360098  RH  078%=      5-min Rain = 0
KQU1 131237Z 26003KT 14/10 A2993 RMK A01 T01360098  RH  078%=      5-min Rain = 0
KQU1 131238Z 25003KT 14/10 A2993 RMK A01 T01370099  RH  078%=      5-min Rain = 0
KQU1 131239Z 25003KT 14/10 A2993 RMK A01 T01370099  RH  077%=      5-min Rain = 0
KQU1 131240Z 24002KT 14/10 A2992 RMK A01 T01370098  RH  077%=      5-min Rain = 0
KQU1 131241Z 24002KT 14/10 A2992 RMK A01 T01380098  RH  077%=      5-min Rain = 0
KQU1 131242Z 24002KT 14/10 A2993 RMK A01 T01380098  RH  077%=      5-min Rain = 0
KQU1 131243Z 25002KT 14/10 A2993 RMK A01 T01380099  RH  077%=      5-min Rain = 0
KQU1 131244Z 26003KT 14/10 A2993 RMK A01 T01380099  RH  077%=      5-min Rain = 0
KQU1 131245Z 26003KT 14/10 A2993 RMK A01 T01380100  RH  077%=      5-min Rain = 0
KQU1 131246Z 26003KT 14/10 A2993 RMK A01 T01390100  RH  077%=      5-min Rain = 0
KQU1 131247Z 27003KT 14/10 A2993 RMK A01 T01390100  RH  077%=      5-min Rain = 0
KQU1 131248Z 28003KT 14/10 A2993 RMK A01 T01390101  RH  078%=      5-min Rain = 0
KQU1 131249Z 27002KT 14/10 A2993 RMK A01 T01400101  RH  078%=      5-min Rain = 0
KQU1 131250Z 28002KT 14/10 A2993 RMK A01 T01400102  RH  078%=      5-min Rain = 0
KQU1 131251Z 30003KT 14/10 A2993 RMK A01 T01400103  RH  078%=      5-min Rain = 0
KQU1 131252Z 31003KT 14/10 A2993 RMK A01 T01410104  RH  078%=      5-min Rain = 0
KQU1 131253Z 32003KT 14/11 A2993 RMK A01 T01420105  RH  078%=      5-min Rain = 0
KQU1 131254Z 32004KT 14/11 A2993 RMK A01 T01430105  RH  078%=      5-min Rain = 0
KQU1 131255Z 32004KT 14/10 A2993 RMK A01 T01440104  RH  077%=      5-min Rain = 0
KQU1 131256Z 32004KT 14/10 A2993 RMK A01 T01440103  RH  076%=      5-min Rain = 0
KQU1 131257Z 32004KT 14/10 A2993 RMK A01 T01440102  RH  076%=      5-min Rain = 0
KQU1 131258Z 32004KT 15/10 A2993 RMK A01 T01450102  RH  075%=      5-min Rain = 0
KQU1 131259Z 31004KT 15/10 A2993 RMK A01 T01450102  RH  075%=      5-min Rain = 0
KQU1 131300Z 31004KT 15/10 A2993 RMK A01 T01460103  RH  075%=      5-min Rain = 0
KQU1 131301Z 31004KT 15/10 A2993 RMK A01 T01460104  RH  075%=      5-min Rain = 0
KQU1 131302Z 32004KT 15/10 A2993 RMK A01 T01470104  RH  075%=      5-min Rain = 0
KQU1 131303Z 32003KT 15/10 A2993 RMK A01 T01480104  RH  075%=      5-min Rain = 0
KQU1 131304Z 33003KT 15/10 A2993 RMK A01 T01480104  RH  075%=      5-min Rain = 0
KQU1 131305Z 33002KT 15/10 A2993 RMK A01 T01490104  RH  074%=      5-min Rain = 0
KQU1 131306Z 32002KT 15/11 A2993 RMK A01 T01500105  RH  074%=      5-min Rain = 0
KQU1 131307Z 31003KT 15/11 A2993 RMK A01 T01510106  RH  075%=      5-min Rain = 0
KQU1 131308Z 29004KT 15/11 A2993 RMK A01 T01520107  RH  075%=      5-min Rain = 0
KQU1 131309Z 29004KT 15/11 A2994 RMK A01 T01540109  RH  075%=      5-min Rain = 0
KQU1 131310Z 29004KT 16/11 A2994 RMK A01 T01550109  RH  074%=      5-min Rain = 0
KQU1 131311Z 30004KT 16/11 A2994 RMK A01 T01570109  RH  073%=      5-min Rain = 0
KQU1 131312Z 31004KT 16/11 A2994 RMK A01 T01580107  RH  071%=      5-min Rain = 0
KQU1 131313Z 31004KT 16/11 A2994 RMK A01 T01590107  RH  071%=      5-min Rain = 0
KQU1 131314Z 30004KT 16/11 A2994 RMK A01 T01600107  RH  070%=      5-min Rain = 0
KQU1 131315Z 30004KT 16/11 A2994 RMK A01 T01610107  RH  070%=      5-min Rain = 0
KQU1 131316Z 30004KT 16/11 A2994 RMK A01 T01620108  RH  070%=      5-min Rain = 0
KQU1 131317Z 30004KT 16/11 A2994 RMK A01 T01630109  RH  070%=      5-min Rain = 0
KQU1 131318Z 30004KT 16/11 A2994 RMK A01 T01640110  RH  070%=      5-min Rain = 0
KQU1 131319Z 30005KT 17/11 A2994 RMK A01 T01650110  RH  070%=      5-min Rain = 0
KQU1 131320Z 31004KT 17/11 A2994 RMK A01 T01660109  RH  069%=      5-min Rain = 0
KQU1 131321Z 31004KT 17/11 A2994 RMK A01 T01680109  RH  068%=      5-min Rain = 0
KQU1 131322Z 32004KT 17/11 A2994 RMK A01 T01680109  RH  068%=      5-min Rain = 0
KQU1 131323Z 33003KT 17/11 A2994 RMK A01 T01690109  RH  068%=      5-min Rain = 0
KQU1 131324Z 33003KT 17/11 A2994 RMK A01 T01700108  RH  067%=      5-min Rain = 0
KQU1 131325Z 33002KT 17/11 A2994 RMK A01 T01710107  RH  066%=      5-min Rain = 0
KQU1 131326Z 33002KT 17/11 A2994 RMK A01 T01710107  RH  066%=      5-min Rain = 0
KQU1 131327Z 33002KT 17/11 A2994 RMK A01 T01720106  RH  065%=      5-min Rain = 0
KQU1 131328Z 33002KT 17/11 A2994 RMK A01 T01730107  RH  065%=      5-min Rain = 0
KQU1 131329Z 33003KT 17/11 A2994 RMK A01 T01730107  RH  065%=      5-min Rain = 0
KQU1 131330Z 33003KT 17/11 A2994 RMK A01 T01740108  RH  065%=      5-min Rain = 0
KQU1 131331Z 33003KT 18/11 A2994 RMK A01 T01750109  RH  065%=      5-min Rain = 0
KQU1 131332Z 35002KT 18/11 A2994 RMK A01 T01760110  RH  065%=      5-min Rain = 0
KQU1 131333Z 35001KT 18/11 A2994 RMK A01 T01770111  RH  065%=      5-min Rain = 0
KQU1 131334Z 34001KT 18/11 A2995 RMK A01 T01790112  RH  065%=      5-min Rain = 0
KQU1 131335Z 33002KT 18/11 A2995 RMK A01 T01800111  RH  064%=      5-min Rain = 0
KQU1 131336Z 33002KT 18/11 A2995 RMK A01 T01810111  RH  064%=      5-min Rain = 0
KQU1 131337Z 35002KT 18/11 A2995 RMK A01 T01820112  RH  063%=      5-min Rain = 0
KQU1 131338Z 35002KT 18/11 A2995 RMK A01 T01840110  RH  062%=      5-min Rain = 0
KQU1 131339Z 35002KT 19/11 A2995 RMK A01 T01850111  RH  062%=      5-min Rain = 0
KQU1 131340Z 00001KT 19/11 A2995 RMK A01 T01860112  RH  062%=      5-min Rain = 0
KQU1 131341Z 35001KT 19/11 A2995 RMK A01 T01870112  RH  062%=      5-min Rain = 0
KQU1 131342Z 35001KT 19/11 A2995 RMK A01 T01880111  RH  061%=      5-min Rain = 0
KQU1 131343Z 34002KT 19/11 A2995 RMK A01 T01890110  RH  060%=      5-min Rain = 0
KQU1 131344Z 00002KT 19/11 A2995 RMK A01 T01890110  RH  060%=      5-min Rain = 0
KQU1 131345Z 00001KT 19/11 A2995 RMK A01 T01900109  RH  059%=      5-min Rain = 0
KQU1 131346Z 02001KT 19/11 A2994 RMK A01 T01910110  RH  059%=      5-min Rain = 0
KQU1 131347Z 02002KT 19/11 A2994 RMK A01 T01920110  RH  059%=      5-min Rain = 0
KQU1 131348Z 01002KT 19/11 A2994 RMK A01 T01930112  RH  059%=      5-min Rain = 0
KQU1 131349Z 02002KT 19/12 A2994 RMK A01 T01940115  RH  060%=      5-min Rain = 0
KQU1 131350Z 02002KT 20/11 A2994 RMK A01 T01950111  RH  058%=      5-min Rain = 0
KQU1 131351Z 02001KT 20/11 A2994 RMK A01 T01950111  RH  058%=      5-min Rain = 0
KQU1 131352Z 02002KT 20/11 A2994 RMK A01 T01960111  RH  058%=      5-min Rain = 0
KQU1 131353Z 01002KT 20/11 A2994 RMK A01 T01970109  RH  057%=      5-min Rain = 0
KQU1 131354Z 35002KT 20/11 A2994 RMK A01 T01970109  RH  057%=      5-min Rain = 0
KQU1 131355Z 36002KT 20/11 A2994 RMK A01 T01970107  RH  056%=      5-min Rain = 0
KQU1 131356Z 01001KT 20/11 A2994 RMK A01 T01970107  RH  056%=      5-min Rain = 0
KQU1 131357Z 06000KT 20/11 A2994 RMK A01 T01970109  RH  057%=      5-min Rain = 0
KQU1 131358Z 03002KT 20/11 A2994 RMK A01 T01990108  RH  056%=      5-min Rain = 0
KQU1 131359Z 02001KT 20/11 A2994 RMK A01 T02000110  RH  056%=      5-min Rain = 0
KQU1 131400Z 02002KT 20/11 A2994 RMK A01 T02000109  RH  056%=      5-min Rain = 0
KQU1 131401Z 03001KT 20/11 A2994 RMK A01 T02000110  RH  056%=      5-min Rain = 0
KQU1 131402Z 03002KT 20/11 A2994 RMK A01 T02000108  RH  055%=      5-min Rain = 0
KQU1 131403Z 03001KT 20/11 A2994 RMK A01 T02000109  RH  056%=      5-min Rain = 0
KQU1 131404Z 02002KT 20/11 A2994 RMK A01 T02000107  RH  055%=      5-min Rain = 0
KQU1 131405Z 02002KT 20/11 A2994 RMK A01 T02000108  RH  055%=      5-min Rain = 0
KQU1 131406Z 04002KT 20/11 A2994 RMK A01 T02000108  RH  055%=      5-min Rain = 0
KQU1 131407Z 04002KT 20/11 A2994 RMK A01 T02010110  RH  056%=      5-min Rain = 0
KQU1 131408Z 04003KT 20/11 A2994 RMK A01 T02010108  RH  055%=      5-min Rain = 0
KQU1 131409Z 05003KT 20/11 A2994 RMK A01 T02010107  RH  055%=      5-min Rain = 0
KQU1 131410Z 04003KT 20/11 A2994 RMK A01 T02010107  RH  055%=      5-min Rain = 0
KQU1 131411Z 04004KT 20/11 A2994 RMK A01 T02010107  RH  055%=      5-min Rain = 0
KQU1 131412Z 03004KT 20/11 A2994 RMK A01 T02010106  RH  054%=      5-min Rain = 0
KQU1 131413Z 03002KT 20/11 A2994 RMK A01 T02000106  RH  055%=      5-min Rain = 0
KQU1 131414Z 03002KT 20/11 A2994 RMK A01 T02010109  RH  055%=      5-min Rain = 0
KQU1 131415Z 02002KT 20/11 A2994 RMK A01 T02010109  RH  055%=      5-min Rain = 0
KQU1 131416Z 02002KT 20/11 A2994 RMK A01 T02020107  RH  054%=      5-min Rain = 0
KQU1 131417Z 04001KT 20/11 A2994 RMK A01 T02020109  RH  055%=      5-min Rain = 0
KQU1 131418Z 03002KT 20/11 A2994 RMK A01 T02030108  RH  054%=      5-min Rain = 0
KQU1 131419Z 04002KT 20/11 A2994 RMK A01 T02040108  RH  054%=      5-min Rain = 0
KQU1 131420Z 03002KT 20/11 A2994 RMK A01 T02040108  RH  054%=      5-min Rain = 0
KQU1 131421Z 03002KT 21/11 A2994 RMK A01 T02050109  RH  054%=      5-min Rain = 0
KQU1 131422Z 03001KT 21/11 A2994 RMK A01 T02050112  RH  055%=      5-min Rain = 0
KQU1 131423Z 03002KT 21/11 A2994 RMK A01 T02060112  RH  055%=      5-min Rain = 0
KQU1 131424Z 03002KT 21/11 A2994 RMK A01 T02060110  RH  054%=      5-min Rain = 0
KQU1 131425Z 36002KT 21/11 A2995 RMK A01 T02070111  RH  054%=      5-min Rain = 0
KQU1 131426Z 01003KT 21/11 A2995 RMK A01 T02070105  RH  052%=      5-min Rain = 0
KQU1 131427Z 01002KT 21/11 A2994 RMK A01 T02060107  RH  053%=      5-min Rain = 0
KQU1 131428Z 02002KT 21/11 A2994 RMK A01 T02060110  RH  054%=      5-min Rain = 0
KQU1 131429Z 02003KT 21/11 A2994 RMK A01 T02070108  RH  053%=      5-min Rain = 0
KQU1 131430Z 03003KT 21/11 A2994 RMK A01 T02070107  RH  052%=      5-min Rain = 0
KQU1 131431Z 04003KT 21/11 A2994 RMK A01 T02070106  RH  052%=      5-min Rain = 0
KQU1 131432Z 02002KT 21/11 A2994 RMK A01 T02070106  RH  052%=      5-min Rain = 0
KQU1 131433Z 03002KT 21/11 A2994 RMK A01 T02070108  RH  053%=      5-min Rain = 0
KQU1 131434Z 03002KT 21/11 A2994 RMK A01 T02080110  RH  053%=      5-min Rain = 0
KQU1 131435Z 03002KT 21/11 A2994 RMK A01 T02090111  RH  053%=      5-min Rain = 0
KQU1 131436Z 03002KT 21/11 A2995 RMK A01 T02100109  RH  052%=      5-min Rain = 0
KQU1 131437Z 03003KT 21/11 A2995 RMK A01 T02100111  RH  053%=      5-min Rain = 0
KQU1 131438Z 04002KT 21/11 A2995 RMK A01 T02100112  RH  053%=      5-min Rain = 0
KQU1 131439Z 04002KT 21/11 A2995 RMK A01 T02110108  RH  052%=      5-min Rain = 0
KQU1 131440Z 04002KT 21/10 A2995 RMK A01 T02120103  RH  050%=      5-min Rain = 0
KQU1 131441Z 04002KT 21/11 A2995 RMK A01 T02120106  RH  051%=      5-min Rain = 0
KQU1 131442Z 02002KT 21/11 A2995 RMK A01 T02130108  RH  051%=      5-min Rain = 0
KQU1 131443Z 02002KT 21/11 A2995 RMK A01 T02130107  RH  051%=      5-min Rain = 0
KQU1 131444Z 03003KT 21/11 A2995 RMK A01 T02130108  RH  051%=      5-min Rain = 0
KQU1 131445Z 04002KT 21/11 A2995 RMK A01 T02140108  RH  051%=      5-min Rain = 0
KQU1 131446Z 04002KT 21/11 A2995 RMK A01 T02140106  RH  050%=      5-min Rain = 0
KQU1 131447Z 04002KT 21/11 A2995 RMK A01 T02140108  RH  051%=      5-min Rain = 0
KQU1 131448Z 02002KT 22/11 A2995 RMK A01 T02150109  RH  051%=      5-min Rain = 0
KQU1 131449Z 02003KT 22/11 A2995 RMK A01 T02150108  RH  050%=      5-min Rain = 0
KQU1 131450Z 02002KT 22/11 A2994 RMK A01 T02150106  RH  050%=      5-min Rain = 0
KQU1 131451Z 02002KT 22/11 A2994 RMK A01 T02160109  RH  050%=      5-min Rain = 0
KQU1 131452Z 03003KT 22/11 A2994 RMK A01 T02160110  RH  051%=      5-min Rain = 0
KQU1 131453Z 02002KT 22/11 A2994 RMK A01 T02170108  RH  050%=      5-min Rain = 0
KQU1 131454Z 01002KT 22/11 A2994 RMK A01 T02170108  RH  050%=      5-min Rain = 0
KQU1 131455Z 00001KT 22/11 A2994 RMK A01 T02180112  RH  051%=      5-min Rain = 0
KQU1 131456Z 01001KT 22/11 A2994 RMK A01 T02180110  RH  050%=      5-min Rain = 0
KQU1 131457Z 02003KT 22/11 A2994 RMK A01 T02190111  RH  050%=      5-min Rain = 0
KQU1 131458Z 03003KT 22/11 A2994 RMK A01 T02190109  RH  050%=      5-min Rain = 0
KQU1 131459Z 09003KT 22/11 A2994 RMK A01 T02190109  RH  049%=      5-min Rain = 0
KQU1 131500Z 08003KT 22/11 A2994 RMK A01 T02210107  RH  048%=      5-min Rain = 0
KQU1 131501Z 09003KT 22/11 A2994 RMK A01 T02220108  RH  048%=      5-min Rain = 0
KQU1 131502Z 09001KT 22/10 A2994 RMK A01 T02240103  RH  046%=      5-min Rain = 0
KQU1 131503Z 08003KT 23/11 A2994 RMK A01 T02250106  RH  047%=      5-min Rain = 0
KQU1 131504Z 08003KT 23/11 A2994 RMK A01 T02260107  RH  047%=      5-min Rain = 0
KQU1 131505Z 08003KT 23/10 A2994 RMK A01 T02270103  RH  045%=      5-min Rain = 0
KQU1 131506Z 10002KT 23/10 A2994 RMK A01 T02270104  RH  046%=      5-min Rain = 0
KQU1 131507Z 06003KT 23/11 A2994 RMK A01 T02280110  RH  047%=      5-min Rain = 0
KQU1 131508Z 07002KT 23/11 A2995 RMK A01 T02290114  RH  048%=      5-min Rain = 0
KQU1 131509Z 09003KT 23/11 A2995 RMK A01 T02300110  RH  047%=      5-min Rain = 0
KQU1 131510Z 09003KT 23/11 A2995 RMK A01 T02310110  RH  046%=      5-min Rain = 0
KQU1 131511Z 09002KT 23/11 A2995 RMK A01 T02330106  RH  045%=      5-min Rain = 0
KQU1 131512Z 08003KT 23/11 A2995 RMK A01 T02340105  RH  044%=      5-min Rain = 0
KQU1 131513Z 11003KT 23/10 A2994 RMK A01 T02340104  RH  044%=      5-min Rain = 0
KQU1 131514Z 10004KT 23/10 A2994 RMK A01 T02340104  RH  044%=      5-min Rain = 0
KQU1 131515Z 08002KT 23/10 A2994 RMK A01 T02340100  RH  043%=      5-min Rain = 0
KQU1 131516Z 08002KT 23/10 A2994 RMK A01 T02330103  RH  044%=      5-min Rain = 0
KQU1 131517Z 11004KT 23/10 A2994 RMK A01 T02340103  RH  044%=      5-min Rain = 0
KQU1 131518Z 12003KT 23/10 A2994 RMK A01 T02340097  RH  042%=      5-min Rain = 0
KQU1 131519Z 15002KT 24/10 A2995 RMK A01 T02350101  RH  043%=      5-min Rain = 0
KQU1 131520Z 17003KT 24/10 A2995 RMK A01 T02350102  RH  043%=      5-min Rain = 0
KQU1 131521Z 12003KT 24/11 A2995 RMK A01 T02360106  RH  044%=      5-min Rain = 0
KQU1 131522Z 11003KT 24/10 A2995 RMK A01 T02380104  RH  043%=      5-min Rain = 0
KQU1 131523Z 09003KT 24/10 A2995 RMK A01 T02390101  RH  042%=      5-min Rain = 0
KQU1 131524Z 10003KT 24/10 A2995 RMK A01 T02390104  RH  042%=      5-min Rain = 0
KQU1 131525Z 11003KT 24/10 A2995 RMK A01 T02400102  RH  042%=      5-min Rain = 0
KQU1 131526Z 09002KT 24/10 A2995 RMK A01 T02410104  RH  042%=      5-min Rain = 0
KQU1 131527Z 09003KT 24/10 A2995 RMK A01 T02410103  RH  042%=      5-min Rain = 0
KQU1 131528Z 08002KT 24/10 A2995 RMK A01 T02420102  RH  041%=      5-min Rain = 0
KQU1 131529Z 09003KT 24/11 A2995 RMK A01 T02430105  RH  042%=      5-min Rain = 0
KQU1 131530Z 12003KT 24/10 A2995 RMK A01 T02430103  RH  041%=      5-min Rain = 0
KQU1 131531Z 12003KT 24/11 A2995 RMK A01 T02440105  RH  042%=      5-min Rain = 0
KQU1 131532Z 11004KT 25/10 A2994 RMK A01 T02450103  RH  041%=      5-min Rain = 0
KQU1 131533Z 10003KT 24/10 A2994 RMK A01 T02440102  RH  041%=      5-min Rain = 0
KQU1 131534Z 08002KT 24/10 A2994 RMK A01 T02440101  RH  041%=      5-min Rain = 0
KQU1 131535Z 14005KT 24/10 A2994 RMK A01 T02430104  RH  041%=      5-min Rain = 0
KQU1 131536Z 16005KT 24/10 A2994 RMK A01 T02440103  RH  041%=      5-min Rain = 0
KQU1 131537Z 16003KT 24/10 A2994 RMK A01 T02430097  RH  040%=      5-min Rain = 0
KQU1 131538Z 11004KT 24/10 A2994 RMK A01 T02420102  RH  041%=      5-min Rain = 0
KQU1 131539Z 10004KT 24/10 A2994 RMK A01 T02430104  RH  041%=      5-min Rain = 0
KQU1 131540Z 10004KT 24/10 A2994 RMK A01 T02430101  RH  041%=      5-min Rain = 0
KQU1 131541Z 08003KT 24/11 A2994 RMK A01 T02420105  RH  042%=      5-min Rain = 0
KQU1 131542Z 08003KT 24/10 A2994 RMK A01 T02430101  RH  041%=      5-min Rain = 0
KQU1 131543Z 13003KT 24/11 A2994 RMK A01 T02420106  RH  042%=      5-min Rain = 0
KQU1 131544Z 16004KT 24/11 A2994 RMK A01 T02440105  RH  042%=      5-min Rain = 0
KQU1 131545Z 17003KT 25/10 A2994 RMK A01 T02450098  RH  039%=      5-min Rain = 0
KQU1 131546Z 17003KT 25/10 A2994 RMK A01 T02450098  RH  039%=      5-min Rain = 0
KQU1 131547Z 18003KT 25/10 A2994 RMK A01 T02460104  RH  041%=      5-min Rain = 0
KQU1 131548Z 15003KT 25/10 A2994 RMK A01 T02480101  RH  040%=      5-min Rain = 0
KQU1 131549Z 15004KT 25/11 A2994 RMK A01 T02490105  RH  040%=      5-min Rain = 0
KQU1 131550Z 15004KT 25/11 A2994 RMK A01 T02500106  RH  040%=      5-min Rain = 0
KQU1 131551Z 12003KT 25/11 A2994 RMK A01 T02510108  RH  041%=      5-min Rain = 0
KQU1 131552Z 17004KT 25/11 A2994 RMK A01 T02520105  RH  040%=      5-min Rain = 0
KQU1 131553Z 19004KT 25/10 A2994 RMK A01 T02520095  RH  037%=      5-min Rain = 0
KQU1 131554Z 20003KT 25/09 A2994 RMK A01 T02500093  RH  037%=      5-min Rain = 0
KQU1 131555Z 19002KT 25/09 A2994 RMK A01 T02490094  RH  037%=      5-min Rain = 0
KQU1 131556Z 16005KT 25/10 A2994 RMK A01 T02490097  RH  038%=      5-min Rain = 0
KQU1 131557Z 16004KT 25/10 A2994 RMK A01 T02500096  RH  038%=      5-min Rain = 0
KQU1 131558Z 17006KT 25/10 A2994 RMK A01 T02500099  RH  038%=      5-min Rain = 0
KQU1 131559Z 18003KT 25/10 A2994 RMK A01 T02500096  RH  038%=      5-min Rain = 0
KQU1 131600Z 19004KT 25/10 A2994 RMK A01 T02500100  RH  039%=      5-min Rain = 0
KQU1 131601Z 19003KT 25/10 A2994 RMK A01 T02500100  RH  039%=      5-min Rain = 0
KQU1 131602Z 19004KT 25/10 A2994 RMK A01 T02510101  RH  039%=      5-min Rain = 0
KQU1 131603Z 16004KT 25/10 A2994 RMK A01 T02530104  RH  039%=      5-min Rain = 0
KQU1 131604Z 16005KT 25/10 A2994 RMK A01 T02540103  RH  038%=      5-min Rain = 0
KQU1 131605Z 16004KT 25/10 A2994 RMK A01 T02540100  RH  038%=      5-min Rain = 0
KQU1 131606Z 17005KT 25/10 A2994 RMK A01 T02540101  RH  038%=      5-min Rain = 0
KQU1 131607Z 16005KT 25/10 A2994 RMK A01 T02540102  RH  038%=      5-min Rain = 0
KQU1 131608Z 16004KT 25/10 A2994 RMK A01 T02540100  RH  038%=      5-min Rain = 0
KQU1 131609Z 16004KT 25/10 A2994 RMK A01 T02530104  RH  039%=      5-min Rain = 0
KQU1 131610Z 16003KT 25/10 A2994 RMK A01 T02540102  RH  038%=      5-min Rain = 0
KQU1 131611Z 16002KT 26/10 A2994 RMK A01 T02550102  RH  038%=      5-min Rain = 0
KQU1 131612Z 17002KT 26/10 A2994 RMK A01 T02550098  RH  037%=      5-min Rain = 0
KQU1 131613Z 14001KT 26/10 A2994 RMK A01 T02550099  RH  037%=      5-min Rain = 0
KQU1 131614Z 10001KT 26/10 A2994 RMK A01 T02560101  RH  038%=      5-min Rain = 0
KQU1 131615Z 10001KT 26/10 A2994 RMK A01 T02580101  RH  037%=      5-min Rain = 0
KQU1 131616Z 04001KT 26/10 A2994 RMK A01 T02580103  RH  038%=      5-min Rain = 0
KQU1 131617Z 34000KT 26/10 A2994 RMK A01 T02580101  RH  037%=      5-min Rain = 0
KQU1 131618Z 30001KT 26/10 A2994 RMK A01 T02580099  RH  037%=      5-min Rain = 0
KQU1 131619Z 17001KT 26/10 A2994 RMK A01 T02580099  RH  037%=      5-min Rain = 0
KQU1 131620Z 12003KT 26/11 A2994 RMK A01 T02590105  RH  038%=      5-min Rain = 0
KQU1 131621Z 13004KT 26/11 A2994 RMK A01 T02620107  RH  038%=      5-min Rain = 0
KQU1 131622Z 13004KT 26/10 A2993 RMK A01 T02630104  RH  037%=      5-min Rain = 0
KQU1 131623Z 15005KT 26/11 A2993 RMK A01 T02640106  RH  037%=      5-min Rain = 0
KQU1 131624Z 14004KT 27/10 A2993 RMK A01 T02650101  RH  036%=      5-min Rain = 0
KQU1 131625Z 16004KT 27/10 A2993 RMK A01 T02650100  RH  036%=      5-min Rain = 0
KQU1 131626Z 16001KT 26/10 A2993 RMK A01 T02630101  RH  036%=      5-min Rain = 0
KQU1 131627Z 15006KT 26/10 A2993 RMK A01 T02640103  RH  036%=      5-min Rain = 0
KQU1 131628Z 13004KT 26/10 A2993 RMK A01 T02630104  RH  037%=      5-min Rain = 0
KQU1 131629Z 13004KT 26/10 A2993 RMK A01 T02640103  RH  036%=      5-min Rain = 0
KQU1 131630Z 15003KT 26/10 A2993 RMK A01 T02640101  RH  036%=      5-min Rain = 0
KQU1 131631Z 13002KT 26/10 A2993 RMK A01 T02630100  RH  036%=      5-min Rain = 0
KQU1 131632Z 11001KT 26/10 A2993 RMK A01 T02630100  RH  036%=      5-min Rain = 0
KQU1 131633Z 07002KT 26/10 A2993 RMK A01 T02630102  RH  036%=      5-min Rain = 0
KQU1 131634Z 08002KT 26/10 A2993 RMK A01 T02640104  RH  037%=      5-min Rain = 0
KQU1 131635Z 11002KT 27/11 A2993 RMK A01 T02650108  RH  037%=      5-min Rain = 0
KQU1 131636Z 13003KT 27/11 A2993 RMK A01 T02680110  RH  037%=      5-min Rain = 0
KQU1 131637Z 15005KT 27/11 A2993 RMK A01 T02700106  RH  036%=      5-min Rain = 0
KQU1 131638Z 16003KT 27/10 A2993 RMK A01 T02700104  RH  035%=      5-min Rain = 0
KQU1 131639Z 14003KT 27/10 A2993 RMK A01 T02700103  RH  035%=      5-min Rain = 0
KQU1 131640Z 16004KT 27/10 A2993 RMK A01 T02690100  RH  035%=      5-min Rain = 0
KQU1 131641Z 17003KT 27/10 A2993 RMK A01 T02680100  RH  035%=      5-min Rain = 0
KQU1 131642Z 17001KT 27/10 A2993 RMK A01 T02670103  RH  036%=      5-min Rain = 0
KQU1 131643Z 16001KT 27/11 A2993 RMK A01 T02690108  RH  037%=      5-min Rain = 0
KQU1 131644Z 14005KT 27/11 A2993 RMK A01 T02700107  RH  036%=      5-min Rain = 0
KQU1 131645Z 13004KT 27/11 A2993 RMK A01 T02710105  RH  035%=      5-min Rain = 0
KQU1 131646Z 13003KT 27/11 A2993 RMK A01 T02720107  RH  036%=      5-min Rain = 0
KQU1 131647Z 12003KT 27/11 A2993 RMK A01 T02730106  RH  035%=      5-min Rain = 0
KQU1 131648Z 12003KT 27/10 A2993 RMK A01 T02730102  RH  034%=      5-min Rain = 0
KQU1 131649Z 14003KT 27/10 A2993 RMK A01 T02730103  RH  034%=      5-min Rain = 0
KQU1 131650Z 15004KT 27/11 A2993 RMK A01 T02730106  RH  035%=      5-min Rain = 0
KQU1 131651Z 13005KT 27/11 A2993 RMK A01 T02730107  RH  035%=      5-min Rain = 0
KQU1 131652Z 12003KT 27/11 A2993 RMK A01 T02740107  RH  035%=      5-min Rain = 0
KQU1 131653Z 13004KT 27/11 A2993 RMK A01 T02740107  RH  035%=      5-min Rain = 0
KQU1 131654Z 14004KT 28/11 A2993 RMK A01 T02750106  RH  035%=      5-min Rain = 0
KQU1 131655Z 17005KT 28/11 A2993 RMK A01 T02760106  RH  035%=      5-min Rain = 0
KQU1 131656Z 15005KT 28/11 A2993 RMK A01 T02760107  RH  035%=      5-min Rain = 0
KQU1 131657Z 16004KT 28/11 A2992 RMK A01 T02780112  RH  036%=      5-min Rain = 0
KQU1 131658Z 17005KT 28/11 A2992 RMK A01 T02790108  RH  035%=      5-min Rain = 0
KQU1 131659Z 16008KT 28/11 A2992 RMK A01 T02790106  RH  034%=      5-min Rain = 0
KQU1 131700Z 15006KT 28/10 A2992 RMK A01 T02770104  RH  034%=      5-min Rain = 0
KQU1 131701Z 14003KT 28/10 A2992 RMK A01 T02750104  RH  034%=      5-min Rain = 0
KQU1 131702Z 14000KT 28/11 A2992 RMK A01 T02750108  RH  035%=      5-min Rain = 0
KQU1 131703Z 11002KT 28/11 A2992 RMK A01 T02760107  RH  035%=      5-min Rain = 0
KQU1 131704Z 12001KT 28/11 A2992 RMK A01 T02770110  RH  035%=      5-min Rain = 0
KQU1 131705Z 14004KT 28/11 A2992 RMK A01 T02790113  RH  036%=      5-min Rain = 0
KQU1 131706Z 13005KT 28/12 A2992 RMK A01 T02810116  RH  036%=      5-min Rain = 0
KQU1 131707Z 16006KT 28/11 A2992 RMK A01 T02830111  RH  034%=      5-min Rain = 0
KQU1 131708Z 15005KT 28/11 A2992 RMK A01 T02830107  RH  033%=      5-min Rain = 0
KQU1 131709Z 16006KT 28/11 A2992 RMK A01 T02830110  RH  034%=      5-min Rain = 0
KQU1 131710Z 14008KT 28/11 A2992 RMK A01 T02820109  RH  034%=      5-min Rain = 0
KQU1 131711Z 13006KT 28/11 A2992 RMK A01 T02820110  RH  034%=      5-min Rain = 0
KQU1 131712Z 13005KT 28/11 A2992 RMK A01 T02830114  RH  035%=      5-min Rain = 0
KQU1 131713Z 13004KT 28/11 A2992 RMK A01 T02840109  RH  034%=      5-min Rain = 0
KQU1 131714Z 12007KT 28/11 A2992 RMK A01 T02840114  RH  035%=      5-min Rain = 0
KQU1 131715Z 11006KT 28/11 A2992 RMK A01 T02840110  RH  034%=      5-min Rain = 0
KQU1 131716Z 13006KT 28/11 A2992 RMK A01 T02820110  RH  034%=      5-min Rain = 0
KQU1 131717Z 15007KT 28/11 A2992 RMK A01 T02820108  RH  034%=      5-min Rain = 0
KQU1 131718Z 14007KT 28/11 A2992 RMK A01 T02830110  RH  034%=      5-min Rain = 0
KQU1 131719Z 14007KT 28/11 A2992 RMK A01 T02840110  RH  034%=      5-min Rain = 0
KQU1 131720Z 16008KT 28/11 A2992 RMK A01 T02840109  RH  034%=      5-min Rain = 0
KQU1 131721Z 15007KT 28/11 A2992 RMK A01 T02830108  RH  034%=      5-min Rain = 0
KQU1 131722Z 15005KT 28/10 A2992 RMK A01 T02820104  RH  033%=      5-min Rain = 0
KQU1 131723Z 17004KT 28/11 A2992 RMK A01 T02820107  RH  034%=      5-min Rain = 0
KQU1 131724Z 17003KT 28/11 A2992 RMK A01 T02820106  RH  033%=      5-min Rain = 0
KQU1 131725Z 19003KT 28/11 A2992 RMK A01 T02810106  RH  034%=      5-min Rain = 0
KQU1 131726Z 16004KT 28/11 A2992 RMK A01 T02820112  RH  035%=      5-min Rain = 0
KQU1 131727Z 15007KT 28/12 A2992 RMK A01 T02840115  RH  035%=      5-min Rain = 0
KQU1 131728Z 15005KT 29/11 A2992 RMK A01 T02850110  RH  034%=      5-min Rain = 0
KQU1 131729Z 15007KT 29/11 A2992 RMK A01 T02850110  RH  034%=      5-min Rain = 0
KQU1 131730Z 14006KT 29/11 A2992 RMK A01 T02850109  RH  034%=      5-min Rain = 0
KQU1 131731Z 14004KT 28/11 A2992 RMK A01 T02840107  RH  033%=      5-min Rain = 0
KQU1 131732Z 13005KT 28/11 A2992 RMK A01 T02840110  RH  034%=      5-min Rain = 0
KQU1 131733Z 12007KT 29/11 A2992 RMK A01 T02850112  RH  034%=      5-min Rain = 0
KQU1 131734Z 13007KT 29/11 A2992 RMK A01 T02850110  RH  034%=      5-min Rain = 0
KQU1 131735Z 13004KT 29/11 A2992 RMK A01 T02850108  RH  033%=      5-min Rain = 0
KQU1 131736Z 14004KT 29/11 A2992 RMK A01 T02850108  RH  033%=      5-min Rain = 0
KQU1 131737Z 12006KT 29/11 A2992 RMK A01 T02850107  RH  033%=      5-min Rain = 0
KQU1 131738Z 14006KT 28/11 A2992 RMK A01 T02840108  RH  033%=      5-min Rain = 0
KQU1 131739Z 15005KT 29/11 A2992 RMK A01 T02850110  RH  034%=      5-min Rain = 0
KQU1 131740Z 13005KT 29/11 A2992 RMK A01 T02860112  RH  034%=      5-min Rain = 0
KQU1 131741Z 13007KT 29/11 A2991 RMK A01 T02880112  RH  034%=      5-min Rain = 0
KQU1 131742Z 14007KT 29/11 A2991 RMK A01 T02890113  RH  034%=      5-min Rain = 0
KQU1 131743Z 14007KT 29/11 A2991 RMK A01 T02910109  RH  032%=      5-min Rain = 0
KQU1 131744Z 11004KT 29/11 A2991 RMK A01 T02910107  RH  032%=      5-min Rain = 0
KQU1 131745Z 16005KT 29/11 A2991 RMK A01 T02910107  RH  032%=      5-min Rain = 0
KQU1 131746Z 15009KT 29/11 A2991 RMK A01 T02900110  RH  033%=      5-min Rain = 0
KQU1 131747Z 14006KT 29/11 A2991 RMK A01 T02890106  RH  032%=      5-min Rain = 0
KQU1 131748Z 12005KT 29/11 A2991 RMK A01 T02900113  RH  033%=      5-min Rain = 0
KQU1 131749Z 14005KT 29/11 A2991 RMK A01 T02920114  RH  033%=      5-min Rain = 0
KQU1 131750Z 14005KT 29/11 A2991 RMK A01 T02930110  RH  032%=      5-min Rain = 0
KQU1 131751Z 15005KT 29/11 A2991 RMK A01 T02930111  RH  032%=      5-min Rain = 0
KQU1 131752Z 14009KT 29/11 A2991 RMK A01 T02940113  RH  033%=      5-min Rain = 0
KQU1 131753Z 14008KT 29/11 A2991 RMK A01 T02940106  RH  031%=      5-min Rain = 0
KQU1 131754Z 15005KT 29/11 A2991 RMK A01 T02940106  RH  031%=      5-min Rain = 0
KQU1 131755Z 15008G13KT 29/11 A2991 RMK A01 T02940112  RH  032%=      5-min Rain = 0
KQU1 131756Z 14008KT 29/11 A2991 RMK A01 T02940110  RH  032%=      5-min Rain = 0
KQU1 131757Z 14008KT 29/11 A2991 RMK A01 T02940109  RH  032%=      5-min Rain = 0
KQU1 131758Z 14006KT 29/11 A2991 RMK A01 T02940110  RH  032%=      5-min Rain = 0
KQU1 131759Z 15006KT 29/11 A2991 RMK A01 T02940109  RH  032%=      5-min Rain = 0
KQU1 131800Z 14003KT 30/11 A2991 RMK A01 T02950111  RH  032%=      5-min Rain = 0
KQU1 131801Z 14004KT 30/11 A2991 RMK A01 T02970111  RH  032%=      5-min Rain = 0
KQU1 131802Z 14005KT 30/11 A2991 RMK A01 T02970107  RH  031%=      5-min Rain = 0
KQU1 131803Z 13004KT 30/11 A2991 RMK A01 T02970112  RH  032%=      5-min Rain = 0
KQU1 131804Z 15006KT 30/11 A2991 RMK A01 T02980112  RH  032%=      5-min Rain = 0
KQU1 131805Z 15006KT 30/11 A2991 RMK A01 T02980109  RH  031%=      5-min Rain = 0
KQU1 131806Z 16004KT 30/11 A2991 RMK A01 T02980105  RH  030%=      5-min Rain = 0
KQU1 131807Z 12004KT 30/11 A2991 RMK A01 T02980111  RH  032%=      5-min Rain = 0
KQU1 131808Z 13009KT 30/11 A2991 RMK A01 T02980113  RH  032%=      5-min Rain = 0
KQU1 131809Z 14008KT 30/11 A2991 RMK A01 T03000114  RH  032%=      5-min Rain = 0
KQU1 131810Z 14004KT 30/11 A2991 RMK A01 T02990108  RH  031%=      5-min Rain = 0
KQU1 131811Z 13006KT 30/11 A2991 RMK A01 T02990110  RH  031%=      5-min Rain = 0
KQU1 131812Z 14008KT 30/12 A2991 RMK A01 T03000115  RH  032%=      5-min Rain = 0
KQU1 131813Z 13007KT 30/12 A2991 RMK A01 T03020115  RH  032%=      5-min Rain = 0
KQU1 131814Z 12005KT 30/11 A299 RMK A01 T03020109  RH  030%=      5-min Rain = 0
KQU1 131815Z 12006KT 30/11 A299 RMK A01 T03020111  RH  031%=      5-min Rain = 0
KQU1 131816Z 15007KT 30/11 A299 RMK A01 T03020111  RH  031%=      5-min Rain = 0
KQU1 131817Z 16005KT 30/11 A299 RMK A01 T03000108  RH  030%=      5-min Rain = 0
KQU1 131818Z 13003KT 30/11 A299 RMK A01 T03000109  RH  031%=      5-min Rain = 0
KQU1 131819Z 14004KT 30/11 A299 RMK A01 T02990108  RH  031%=      5-min Rain = 0
KQU1 131820Z 13005KT 30/11 A299 RMK A01 T03000111  RH  031%=      5-min Rain = 0
KQU1 131821Z 13008KT 30/11 A299 RMK A01 T03000113  RH  031%=      5-min Rain = 0
KQU1 131822Z 15009KT 30/11 A299 RMK A01 T03020113  RH  031%=      5-min Rain = 0
KQU1 131823Z 15006KT 30/11 A299 RMK A01 T03010108  RH  030%=      5-min Rain = 0
KQU1 131824Z 15004KT 30/11 A299 RMK A01 T03010111  RH  031%=      5-min Rain = 0
KQU1 131825Z 16005KT 30/11 A299 RMK A01 T03010111  RH  031%=      5-min Rain = 0
KQU1 131826Z 15004KT 30/11 A299 RMK A01 T03020113  RH  031%=      5-min Rain = 0
KQU1 131827Z 12005KT 30/12 A299 RMK A01 T03040117  RH  032%=      5-min Rain = 0
KQU1 131828Z 13005KT 31/12 A299 RMK A01 T03060115  RH  031%=      5-min Rain = 0
KQU1 131829Z 13004KT 31/11 A299 RMK A01 T03080110  RH  030%=      5-min Rain = 0
KQU1 131830Z 11005KT 31/11 A299 RMK A01 T03070108  RH  029%=      5-min Rain = 0
KQU1 131831Z 12005KT 31/11 A299 RMK A01 T03050113  RH  031%=      5-min Rain = 0
KQU1 131832Z 13009KT 31/12 A299 RMK A01 T03060118  RH  032%=      5-min Rain = 0
KQU1 131833Z 14007KT 31/11 A299 RMK A01 T03070114  RH  030%=      5-min Rain = 0
KQU1 131834Z 13011KT 31/11 A2989 RMK A01 T03070113  RH  030%=      5-min Rain = 0
KQU1 131835Z 13010KT 31/11 A2989 RMK A01 T03070113  RH  030%=      5-min Rain = 0
KQU1 131836Z 13008KT 31/11 A2989 RMK A01 T03070112  RH  030%=      5-min Rain = 0
KQU1 131837Z 14006KT 31/11 A2989 RMK A01 T03070111  RH  030%=      5-min Rain = 0
KQU1 131838Z 17005KT 31/11 A2989 RMK A01 T03060111  RH  030%=      5-min Rain = 0
KQU1 131839Z 16005KT 31/11 A2989 RMK A01 T03060109  RH  030%=      5-min Rain = 0
KQU1 131840Z 14005KT 31/11 A2989 RMK A01 T03050113  RH  031%=      5-min Rain = 0
KQU1 131841Z 17007KT 31/11 A2989 RMK A01 T03060111  RH  030%=      5-min Rain = 0
KQU1 131842Z 16005KT 30/11 A2989 RMK A01 T03040107  RH  029%=      5-min Rain = 0
KQU1 131843Z 11005KT 30/11 A2989 RMK A01 T03040113  RH  031%=      5-min Rain = 0
KQU1 131844Z 12006KT 30/11 A2989 RMK A01 T03040109  RH  030%=      5-min Rain = 0
KQU1 131845Z 13003KT 30/11 A2989 RMK A01 T03040111  RH  031%=      5-min Rain = 0
KQU1 131846Z 11003KT 31/11 A2989 RMK A01 T03050113  RH  031%=      5-min Rain = 0
KQU1 131847Z 18003G8KT 31/11 A2988 RMK A01 T03050109  RH  030%=      5-min Rain = 0
KQU1 131848Z 16008KT 31/12 A2988 RMK A01 T03070117  RH  031%=      5-min Rain = 0
KQU1 131849Z 16008KT 31/11 A2988 RMK A01 T03080112  RH  030%=      5-min Rain = 0
KQU1 131850Z 16005KT 31/11 A2988 RMK A01 T03060108  RH  029%=      5-min Rain = 0
KQU1 131851Z 15005KT 31/11 A2988 RMK A01 T03050110  RH  030%=      5-min Rain = 0
KQU1 131852Z 12006KT 31/12 A2988 RMK A01 T03050115  RH  031%=      5-min Rain = 0
KQU1 131853Z 14009KT 31/12 A2988 RMK A01 T03070116  RH  031%=      5-min Rain = 0
KQU1 131854Z 14009KT 31/11 A2988 RMK A01 T03080114  RH  030%=      5-min Rain = 0
KQU1 131855Z 12008KT 31/11 A2988 RMK A01 T03090114  RH  030%=      5-min Rain = 0
KQU1 131856Z 12006KT 31/11 A2988 RMK A01 T03080112  RH  030%=      5-min Rain = 0
KQU1 131857Z 14004KT 31/12 A2988 RMK A01 T03090117  RH  031%=      5-min Rain = 0
KQU1 131858Z 15004KT 31/12 A2988 RMK A01 T03110118  RH  031%=      5-min Rain = 0
KQU1 131859Z 12007KT 31/11 A2988 RMK A01 T03120114  RH  030%=      5-min Rain = 0
KQU1 131900Z 14008KT 31/12 A2988 RMK A01 T03130117  RH  030%=      5-min Rain = 0
KQU1 131901Z 15007KT 31/11 A2988 RMK A01 T03130114  RH  029%=      5-min Rain = 0
KQU1 131902Z 16005KT 31/11 A2988 RMK A01 T03130111  RH  029%=      5-min Rain = 0
KQU1 131903Z 14005KT 31/11 A2988 RMK A01 T03120112  RH  029%=      5-min Rain = 0
KQU1 131904Z 16003KT 31/12 A2987 RMK A01 T03130115  RH  030%=      5-min Rain = 0
KQU1 131905Z 15006KT 31/12 A2987 RMK A01 T03140116  RH  030%=      5-min Rain = 0
KQU1 131906Z 15008KT 31/11 A2987 RMK A01 T03140113  RH  029%=      5-min Rain = 0
KQU1 131907Z 13009KT 31/11 A2987 RMK A01 T03140114  RH  029%=      5-min Rain = 0
KQU1 131908Z 12007KT 31/11 A2987 RMK A01 T03140110  RH  029%=      5-min Rain = 0
KQU1 131909Z 13006KT 31/11 A2987 RMK A01 T03130113  RH  029%=      5-min Rain = 0
KQU1 131910Z 17007KT 31/12 A2987 RMK A01 T03130115  RH  030%=      5-min Rain = 0
KQU1 131911Z 17008KT 31/12 A2987 RMK A01 T03140117  RH  030%=      5-min Rain = 0
KQU1 131912Z 18007KT 32/12 A2987 RMK A01 T03160115  RH  029%=      5-min Rain = 0
KQU1 131913Z 17004KT 32/12 A2987 RMK A01 T03180115  RH  029%=      5-min Rain = 0
KQU1 131914Z 16005KT 32/11 A2987 RMK A01 T03190114  RH  028%=      5-min Rain = 0
KQU1 131915Z 12007KT 32/12 A2987 RMK A01 T03190115  RH  029%=      5-min Rain = 0
KQU1 131916Z 16009KT 32/12 A2987 RMK A01 T03190115  RH  029%=      5-min Rain = 0
KQU1 131917Z 14010KT 32/12 A2987 RMK A01 T03180115  RH  029%=      5-min Rain = 0
KQU1 131918Z 14009KT 32/11 A2987 RMK A01 T03180113  RH  028%=      5-min Rain = 0
KQU1 131919Z 12008KT 32/11 A2987 RMK A01 T03180110  RH  028%=      5-min Rain = 0
KQU1 131920Z 14009KT 32/12 A2986 RMK A01 T03180119  RH  030%=      5-min Rain = 0
KQU1 131921Z 14010KT 32/12 A2986 RMK A01 T03190115  RH  029%=      5-min Rain = 0
KQU1 131922Z 14009KT 32/11 A2986 RMK A01 T03200113  RH  028%=      5-min Rain = 0
KQU1 131923Z 17006KT 32/11 A2986 RMK A01 T03200114  RH  028%=      5-min Rain = 0
KQU1 131924Z 17005KT 32/11 A2986 RMK A01 T03190110  RH  028%=      5-min Rain = 0
KQU1 131925Z 13006KT 32/12 A2986 RMK A01 T03190116  RH  029%=      5-min Rain = 0
KQU1 131926Z 12011KT 32/11 A2986 RMK A01 T03190110  RH  028%=      5-min Rain = 0
KQU1 131927Z 13006KT 32/11 A2986 RMK A01 T03190112  RH  028%=      5-min Rain = 0
KQU1 131928Z 13005KT 32/11 A2986 RMK A01 T03190112  RH  028%=      5-min Rain = 0
KQU1 131929Z 15008KT 32/11 A2986 RMK A01 T03190113  RH  028%=      5-min Rain = 0
KQU1 131930Z 12009KT 32/11 A2986 RMK A01 T03190114  RH  028%=      5-min Rain = 0
KQU1 131931Z 12007KT 32/11 A2986 RMK A01 T03200114  RH  028%=      5-min Rain = 0
KQU1 131932Z 12005KT 32/11 A2986 RMK A01 T03200110  RH  028%=      5-min Rain = 0
KQU1 131933Z 12006G11KT 32/11 A2986 RMK A01 T03200112  RH  028%=      5-min Rain = 0
KQU1 131934Z 13011KT 32/12 A2986 RMK A01 T03200115  RH  028%=      5-min Rain = 0
KQU1 131935Z 13010KT 32/11 A2986 RMK A01 T03200114  RH  028%=      5-min Rain = 0
KQU1 131936Z 14011KT 32/11 A2986 RMK A01 T03210113  RH  028%=      5-min Rain = 0
KQU1 131937Z 14011KT 32/11 A2986 RMK A01 T03210112  RH  028%=      5-min Rain = 0
KQU1 131938Z 13008KT 32/11 A2986 RMK A01 T03210113  RH  028%=      5-min Rain = 0
KQU1 131939Z 14008KT 32/12 A2986 RMK A01 T03220115  RH  028%=      5-min Rain = 0
KQU1 131940Z 15010KT 32/11 A2986 RMK A01 T03230112  RH  028%=      5-min Rain = 0
KQU1 131941Z 15007KT 32/11 A2986 RMK A01 T03220113  RH  028%=      5-min Rain = 0
KQU1 131942Z 15009KT 32/11 A2986 RMK A01 T03220111  RH  027%=      5-min Rain = 0
KQU1 131943Z 14006KT 32/11 A2986 RMK A01 T03220113  RH  028%=      5-min Rain = 0
KQU1 131944Z 14008KT 32/12 A2985 RMK A01 T03240117  RH  028%=      5-min Rain = 0
KQU1 131945Z 14008KT 33/12 A2985 RMK A01 T03250116  RH  028%=      5-min Rain = 0
KQU1 131946Z 15005KT 33/11 A2985 RMK A01 T03270113  RH  027%=      5-min Rain = 0
KQU1 131947Z 13008KT 33/11 A2985 RMK A01 T03270110  RH  026%=      5-min Rain = 0
KQU1 131948Z 14008KT 33/12 A2985 RMK A01 T03270115  RH  027%=      5-min Rain = 0
KQU1 131949Z 14011KT 33/12 A2985 RMK A01 T03280118  RH  028%=      5-min Rain = 0
KQU1 131950Z 14010KT 33/11 A2985 RMK A01 T03270110  RH  026%=      5-min Rain = 0
KQU1 131951Z 15009KT 33/11 A2985 RMK A01 T03260113  RH  027%=      5-min Rain = 0
KQU1 131952Z 15008KT 33/12 A2985 RMK A01 T03260115  RH  028%=      5-min Rain = 0
KQU1 131953Z 16009KT 33/12 A2985 RMK A01 T03270115  RH  027%=      5-min Rain = 0
KQU1 131954Z 14008KT 33/11 A2985 RMK A01 T03260112  RH  027%=      5-min Rain = 0
KQU1 131955Z 13010KT 33/12 A2985 RMK A01 T03270115  RH  027%=      5-min Rain = 0
KQU1 131956Z 11008KT 33/12 A2985 RMK A01 T03270116  RH  028%=      5-min Rain = 0
KQU1 131957Z 11008KT 33/11 A2985 RMK A01 T03270113  RH  027%=      5-min Rain = 0
KQU1 131958Z 11009KT 33/11 A2985 RMK A01 T03270113  RH  027%=      5-min Rain = 0
KQU1 131959Z 12010KT 33/11 A2985 RMK A01 T03280114  RH  027%=      5-min Rain = 0
KQU1 132000Z 13008KT 33/11 A2985 RMK A01 T03270110  RH  026%=      5-min Rain = 0
KQU1 132001Z 13007KT 33/12 A2985 RMK A01 T03280116  RH  027%=      5-min Rain = 0
KQU1 132002Z 13010KT 33/11 A2985 RMK A01 T03300112  RH  026%=      5-min Rain = 0
KQU1 132003Z 14008KT 33/11 A2985 RMK A01 T03300111  RH  026%=      5-min Rain = 0
KQU1 132004Z 14009KT 33/11 A2985 RMK A01 T03290111  RH  026%=      5-min Rain = 0
KQU1 132005Z 13010G15KT 33/11 A2985 RMK A01 T03290113  RH  027%=      5-min Rain = 0
KQU1 132006Z 15010KT 33/11 A2985 RMK A01 T03300111  RH  026%=      5-min Rain = 0
KQU1 132007Z 14008KT 33/12 A2985 RMK A01 T03300116  RH  027%=      5-min Rain = 0
KQU1 132008Z 13008KT 33/12 A2984 RMK A01 T03320115  RH  027%=      5-min Rain = 0
KQU1 132009Z 13012KT 33/11 A2984 RMK A01 T03330112  RH  026%=      5-min Rain = 0
KQU1 132010Z 13007KT 33/11 A2984 RMK A01 T03330112  RH  026%=      5-min Rain = 0
KQU1 132011Z 14009KT 33/11 A2984 RMK A01 T03330110  RH  026%=      5-min Rain = 0
KQU1 132012Z 15008KT 33/12 A2984 RMK A01 T03330116  RH  027%=      5-min Rain = 0
KQU1 132013Z 14010KT 33/12 A2984 RMK A01 T03340116  RH  026%=      5-min Rain = 0
KQU1 132014Z 14009KT 34/11 A2984 RMK A01 T03350110  RH  025%=      5-min Rain = 0
KQU1 132015Z 13008KT 33/11 A2984 RMK A01 T03340107  RH  025%=      5-min Rain = 0
KQU1 132016Z 14009KT 33/11 A2984 RMK A01 T03330109  RH  025%=      5-min Rain = 0
KQU1 132017Z 12007KT 33/11 A2984 RMK A01 T03330111  RH  026%=      5-min Rain = 0
KQU1 132018Z 13008KT 33/11 A2984 RMK A01 T03330109  RH  026%=      5-min Rain = 0
KQU1 132019Z 13007KT 33/11 A2984 RMK A01 T03320109  RH  026%=      5-min Rain = 0
KQU1 132020Z 14007KT 33/11 A2984 RMK A01 T03320111  RH  026%=      5-min Rain = 0
KQU1 132021Z 12010KT 33/11 A2984 RMK A01 T03330112  RH  026%=      5-min Rain = 0
KQU1 132022Z 14008KT 33/11 A2984 RMK A01 T03340111  RH  026%=      5-min Rain = 0
KQU1 132023Z 14008KT 33/11 A2984 RMK A01 T03340111  RH  026%=      5-min Rain = 0
KQU1 132024Z 14008KT 34/11 A2984 RMK A01 T03350109  RH  025%=      5-min Rain = 0
KQU1 132025Z 14006KT 33/11 A2984 RMK A01 T03340108  RH  025%=      5-min Rain = 0
KQU1 132026Z 13006KT 33/11 A2984 RMK A01 T03340106  RH  025%=      5-min Rain = 0
KQU1 132027Z 14007KT 33/11 A2984 RMK A01 T03340110  RH  026%=      5-min Rain = 0
KQU1 132028Z 14007KT 33/11 A2984 RMK A01 T03340110  RH  025%=      5-min Rain = 0
KQU1 132029Z 14006KT 34/11 A2984 RMK A01 T03350109  RH  025%=      5-min Rain = 0
KQU1 132030Z 15010KT 34/11 A2984 RMK A01 T03350109  RH  025%=      5-min Rain = 0
KQU1 132031Z 15011KT 33/11 A2984 RMK A01 T03340108  RH  025%=      5-min Rain = 0
KQU1 132032Z 14009KT 33/11 A2984 RMK A01 T03340111  RH  026%=      5-min Rain = 0
KQU1 132033Z 14011KT 34/11 A2983 RMK A01 T03350110  RH  025%=      5-min Rain = 0
KQU1 132034Z 14008KT 34/11 A2983 RMK A01 T03350109  RH  025%=      5-min Rain = 0
KQU1 132035Z 14010KT 34/11 A2983 RMK A01 T03360108  RH  025%=      5-min Rain = 0
KQU1 132036Z 14009KT 34/11 A2983 RMK A01 T03350107  RH  025%=      5-min Rain = 0
KQU1 132037Z 13009KT 34/11 A2983 RMK A01 T03350110  RH  025%=      5-min Rain = 0
KQU1 132038Z 14010KT 34/11 A2983 RMK A01 T03360110  RH  025%=      5-min Rain = 0
KQU1 132039Z 14011KT 34/11 A2983 RMK A01 T03360108  RH  025%=      5-min Rain = 0
KQU1 132040Z 14011KT 34/11 A2983 RMK A01 T03370110  RH  025%=      5-min Rain = 0
KQU1 132041Z 15008KT 34/11 A2983 RMK A01 T03360106  RH  024%=      5-min Rain = 0
KQU1 132042Z 14009KT 34/12 A2983 RMK A01 T03370116  RH  026%=      5-min Rain = 0
KQU1 132043Z 13010KT 34/11 A2983 RMK A01 T03390111  RH  025%=      5-min Rain = 0
KQU1 132044Z 14011KT 34/11 A2983 RMK A01 T03390107  RH  024%=      5-min Rain = 0
KQU1 132045Z 13009KT 34/11 A2983 RMK A01 T03390109  RH  025%=      5-min Rain = 0
KQU1 132046Z 13008KT 34/11 A2983 RMK A01 T03380106  RH  024%=      5-min Rain = 0
KQU1 132047Z 12010KT 34/11 A2983 RMK A01 T03370105  RH  024%=      5-min Rain = 0
KQU1 132048Z 11010KT 34/10 A2983 RMK A01 T03350104  RH  024%=      5-min Rain = 0
KQU1 132049Z 11009KT 33/10 A2983 RMK A01 T03340104  RH  025%=      5-min Rain = 0
KQU1 132050Z 10009KT 33/11 A2983 RMK A01 T03330105  RH  025%=      5-min Rain = 0
KQU1 132051Z 10011KT 33/11 A2983 RMK A01 T03330106  RH  025%=      5-min Rain = 0
KQU1 132052Z 13011KT 33/11 A2983 RMK A01 T03340106  RH  025%=      5-min Rain = 0
KQU1 132053Z 13011KT 34/11 A2983 RMK A01 T03350107  RH  025%=      5-min Rain = 0
KQU1 132054Z 13013KT 34/11 A2983 RMK A01 T03350105  RH  025%=      5-min Rain = 0
KQU1 132055Z 14010KT 34/10 A2983 RMK A01 T03350102  RH  024%=      5-min Rain = 0
KQU1 132056Z 12008KT 33/10 A2983 RMK A01 T03340101  RH  024%=      5-min Rain = 0
KQU1 132057Z 12012KT 33/11 A2983 RMK A01 T03340105  RH  025%=      5-min Rain = 0
KQU1 132058Z 13007KT 34/11 A2983 RMK A01 T03350112  RH  026%=      5-min Rain = 0
KQU1 132059Z 10007KT 34/11 A2983 RMK A01 T03360108  RH  025%=      5-min Rain = 0
KQU1 132100Z 10006KT 34/11 A2983 RMK A01 T03370106  RH  024%=      5-min Rain = 0
KQU1 132101Z 12006KT 34/11 A2983 RMK A01 T03370106  RH  024%=      5-min Rain = 0
KQU1 132102Z 14009KT 34/11 A2983 RMK A01 T03380109  RH  025%=      5-min Rain = 0
KQU1 132103Z 13011KT 34/11 A2983 RMK A01 T03390107  RH  024%=      5-min Rain = 0
KQU1 132104Z 13012KT 34/10 A2983 RMK A01 T03380104  RH  024%=      5-min Rain = 0
KQU1 132105Z 13011KT 34/10 A2983 RMK A01 T03380104  RH  024%=      5-min Rain = 0
KQU1 132106Z 11009KT 34/10 A2983 RMK A01 T03370104  RH  024%=      5-min Rain = 0
KQU1 132107Z 13007KT 34/10 A2983 RMK A01 T03350104  RH  024%=      5-min Rain = 0
KQU1 132108Z 15007KT 34/11 A2983 RMK A01 T03360105  RH  024%=      5-min Rain = 0
KQU1 132109Z 11006KT 34/11 A2983 RMK A01 T03370105  RH  024%=      5-min Rain = 0
KQU1 132110Z 11007KT 34/11 A2982 RMK A01 T03370105  RH  024%=      5-min Rain = 0
KQU1 132111Z 11011KT 34/10 A2982 RMK A01 T03360102  RH  024%=      5-min Rain = 0
KQU1 132112Z 13011KT 34/11 A2982 RMK A01 T03360107  RH  025%=      5-min Rain = 0
KQU1 132113Z 14009KT 34/11 A2982 RMK A01 T03370106  RH  024%=      5-min Rain = 0
KQU1 132114Z 13011KT 34/11 A2982 RMK A01 T03380110  RH  025%=      5-min Rain = 0
KQU1 132115Z 12011KT 34/10 A2982 RMK A01 T03380103  RH  024%=      5-min Rain = 0
KQU1 132116Z 11009KT 34/11 A2982 RMK A01 T03370106  RH  024%=      5-min Rain = 0
KQU1 132117Z 11008KT 34/11 A2982 RMK A01 T03370105  RH  024%=      5-min Rain = 0
KQU1 132118Z 12008KT 34/11 A2982 RMK A01 T03370106  RH  024%=      5-min Rain = 0
KQU1 132119Z 15008KT 34/11 A2982 RMK A01 T03380108  RH  025%=      5-min Rain = 0
KQU1 132120Z 14011KT 34/10 A2982 RMK A01 T03370104  RH  024%=      5-min Rain = 0
KQU1 132121Z 14012KT 34/11 A2982 RMK A01 T03380106  RH  024%=      5-min Rain = 0
KQU1 132122Z 13012KT 34/11 A2982 RMK A01 T03380106  RH  024%=      5-min Rain = 0
KQU1 132123Z 15010KT 34/10 A2982 RMK A01 T03390102  RH  024%=      5-min Rain = 0
KQU1 132124Z 15009KT 34/11 A2982 RMK A01 T03380107  RH  024%=      5-min Rain = 0
KQU1 132125Z 14010KT 34/10 A2982 RMK A01 T03380102  RH  024%=      5-min Rain = 0
KQU1 132126Z 14007KT 34/11 A2982 RMK A01 T03380108  RH  025%=      5-min Rain = 0
KQU1 132127Z 15008KT 34/11 A2982 RMK A01 T03390109  RH  025%=      5-min Rain = 0
KQU1 132128Z 15008KT 34/11 A2982 RMK A01 T03410108  RH  024%=      5-min Rain = 0
KQU1 132129Z 14009KT 34/11 A2982 RMK A01 T03410105  RH  024%=      5-min Rain = 0
KQU1 132130Z 15010KT 34/10 A2982 RMK A01 T03410104  RH  024%=      5-min Rain = 0
KQU1 132131Z 16008KT 34/10 A2982 RMK A01 T03410103  RH  023%=      5-min Rain = 0
KQU1 132132Z 14010KT 34/10 A2982 RMK A01 T03400104  RH  024%=      5-min Rain = 0
KQU1 132133Z 12010KT 34/11 A2982 RMK A01 T03390105  RH  024%=      5-min Rain = 0
KQU1 132134Z 12009KT 34/10 A2982 RMK A01 T03390102  RH  024%=      5-min Rain = 0
KQU1 132135Z 12009KT 34/10 A2982 RMK A01 T03380101  RH  024%=      5-min Rain = 0
KQU1 132136Z 11005KT 34/10 A2982 RMK A01 T03370102  RH  024%=      5-min Rain = 0
KQU1 132137Z 12007KT 34/11 A2982 RMK A01 T03380108  RH  025%=      5-min Rain = 0
KQU1 132138Z 11011KT 34/11 A2982 RMK A01 T03380106  RH  024%=      5-min Rain = 0
KQU1 132139Z 10008KT 34/11 A2982 RMK A01 T03380105  RH  024%=      5-min Rain = 0
KQU1 132140Z 12007KT 34/11 A2982 RMK A01 T03370108  RH  025%=      5-min Rain = 0
KQU1 132141Z 15012KT 34/11 A2982 RMK A01 T03380106  RH  024%=      5-min Rain = 0
KQU1 132142Z 15010KT 34/10 A2982 RMK A01 T03380102  RH  024%=      5-min Rain = 0
KQU1 132143Z 13009KT 34/11 A2982 RMK A01 T03380106  RH  024%=      5-min Rain = 0
KQU1 132144Z 12008KT 34/10 A2982 RMK A01 T03380104  RH  024%=      5-min Rain = 0
KQU1 132145Z 13008G13KT 34/11 A2982 RMK A01 T03390110  RH  025%=      5-min Rain = 0
KQU1 132146Z 13010KT 34/10 A2982 RMK A01 T03390103  RH  024%=      5-min Rain = 0
KQU1 132147Z 11010KT 34/10 A2981 RMK A01 T03390104  RH  024%=      5-min Rain = 0
KQU1 132148Z 12010KT 34/10 A2981 RMK A01 T03380104  RH  024%=      5-min Rain = 0
KQU1 132149Z 13010KT 34/11 A2981 RMK A01 T03380107  RH  024%=      5-min Rain = 0
KQU1 132150Z 14011KT 34/11 A2981 RMK A01 T03390108  RH  024%=      5-min Rain = 0
KQU1 132151Z 13013KT 34/10 A2981 RMK A01 T03380103  RH  024%=      5-min Rain = 0
KQU1 132152Z 12012KT 34/10 A2981 RMK A01 T03380103  RH  024%=      5-min Rain = 0
KQU1 132153Z 12012KT 34/10 A2982 RMK A01 T03370103  RH  024%=      5-min Rain = 0
KQU1 132154Z 12010KT 34/11 A2981 RMK A01 T03360107  RH  025%=      5-min Rain = 0
KQU1 132155Z 13008KT 34/11 A2981 RMK A01 T03370106  RH  024%=      5-min Rain = 0
KQU1 132156Z 12011KT 34/11 A2982 RMK A01 T03370105  RH  024%=      5-min Rain = 0
KQU1 132157Z 12011KT 34/11 A2982 RMK A01 T03370106  RH  024%=      5-min Rain = 0
KQU1 132158Z 12008KT 34/10 A2981 RMK A01 T03370104  RH  024%=      5-min Rain = 0
KQU1 132159Z 12009G15KT 34/10 A2981 RMK A01 T03370103  RH  024%=      5-min Rain = 0
KQU1 132200Z 12012KT 34/10 A2981 RMK A01 T03360102  RH  024%=      5-min Rain = 0
KQU1 132201Z 13011KT 34/10 A2981 RMK A01 T03360100  RH  024%=      5-min Rain = 0
KQU1 132202Z 13011KT 34/10 A2981 RMK A01 T03350103  RH  024%=      5-min Rain = 0
KQU1 132203Z 11006KT 34/11 A2981 RMK A01 T03360105  RH  024%=      5-min Rain = 0
KQU1 132204Z 11010KT 34/10 A2981 RMK A01 T03360102  RH  024%=      5-min Rain = 0
KQU1 132205Z 12011KT 34/10 A2981 RMK A01 T03350101  RH  024%=      5-min Rain = 0
KQU1 132206Z 11010KT 34/10 A2981 RMK A01 T03350104  RH  024%=      5-min Rain = 0
KQU1 132207Z 12010KT 34/10 A2981 RMK A01 T03350100  RH  024%=      5-min Rain = 0
KQU1 132208Z 12011KT 33/10 A2981 RMK A01 T03340103  RH  024%=      5-min Rain = 0
KQU1 132209Z 12011KT 34/11 A2981 RMK A01 T03350105  RH  025%=      5-min Rain = 0
KQU1 132210Z 13013KT 34/10 A2981 RMK A01 T03350102  RH  024%=      5-min Rain = 0
KQU1 132211Z 12015KT 34/10 A2981 RMK A01 T03350102  RH  024%=      5-min Rain = 0
KQU1 132212Z 12012KT 33/10 A2981 RMK A01 T03340103  RH  024%=      5-min Rain = 0
KQU1 132213Z 12010KT 33/11 A2981 RMK A01 T03340105  RH  025%=      5-min Rain = 0
KQU1 132214Z 11011KT 34/10 A2981 RMK A01 T03350102  RH  024%=      5-min Rain = 0
KQU1 132215Z 11011KT 33/10 A2981 RMK A01 T03340102  RH  024%=      5-min Rain = 0
KQU1 132216Z 11010KT 33/10 A2981 RMK A01 T03340103  RH  024%=      5-min Rain = 0
KQU1 132217Z 10010KT 33/10 A2981 RMK A01 T03330102  RH  024%=      5-min Rain = 0
KQU1 132218Z 11009KT 33/11 A2981 RMK A01 T03340105  RH  025%=      5-min Rain = 0
KQU1 132219Z 13011KT 33/11 A2981 RMK A01 T03340105  RH  025%=      5-min Rain = 0
KQU1 132220Z 13011KT 34/10 A2981 RMK A01 T03350102  RH  024%=      5-min Rain = 0
KQU1 132221Z 13009KT 34/10 A2981 RMK A01 T03350102  RH  024%=      5-min Rain = 0
KQU1 132222Z 16010KT 34/10 A2981 RMK A01 T03360103  RH  024%=      5-min Rain = 0
KQU1 132223Z 14011KT 34/11 A2981 RMK A01 T03350105  RH  024%=      5-min Rain = 0
KQU1 132224Z 14011KT 34/10 A2981 RMK A01 T03350101  RH  024%=      5-min Rain = 0
KQU1 132225Z 14012KT 34/10 A2981 RMK A01 T03350101  RH  024%=      5-min Rain = 0
KQU1 132226Z 12012KT 34/11 A2981 RMK A01 T03350105  RH  024%=      5-min Rain = 0
KQU1 132227Z 14010KT 34/11 A2981 RMK A01 T03350105  RH  024%=      5-min Rain = 0
KQU1 132228Z 12011KT 34/11 A2981 RMK A01 T03350107  RH  025%=      5-min Rain = 0
KQU1 132229Z 11011KT 34/11 A2981 RMK A01 T03350106  RH  025%=      5-min Rain = 0
KQU1 132230Z 11009KT 34/11 A2981 RMK A01 T03350107  RH  025%=      5-min Rain = 0
KQU1 132231Z 11008KT 33/11 A2981 RMK A01 T03340110  RH  025%=      5-min Rain = 0
KQU1 132232Z 11009KT 34/11 A2981 RMK A01 T03350112  RH  026%=      5-min Rain = 0
KQU1 132233Z 13012KT 34/11 A2981 RMK A01 T03360106  RH  025%=      5-min Rain = 0
KQU1 132234Z 12011KT 34/10 A2981 RMK A01 T03350102  RH  024%=      5-min Rain = 0
KQU1 132235Z 12009G15KT 34/11 A2981 RMK A01 T03350107  RH  025%=      5-min Rain = 0
KQU1 132236Z 12013KT 34/11 A2981 RMK A01 T03360110  RH  025%=      5-min Rain = 0
KQU1 132237Z 12013KT 34/11 A2981 RMK A01 T03350110  RH  025%=      5-min Rain = 0
KQU1 132238Z 11012KT 33/11 A2981 RMK A01 T03330110  RH  026%=      5-min Rain = 0
KQU1 132239Z 11011KT 33/11 A2981 RMK A01 T03320111  RH  026%=      5-min Rain = 0
KQU1 132240Z 10012KT 33/11 A2981 RMK A01 T03310109  RH  026%=      5-min Rain = 0
KQU1 132241Z 10012KT 33/11 A2981 RMK A01 T03300107  RH  026%=      5-min Rain = 0
KQU1 132242Z 10013KT 33/11 A2981 RMK A01 T03290106  RH  026%=      5-min Rain = 0
KQU1 132243Z 10010KT 33/11 A2981 RMK A01 T03280109  RH  026%=      5-min Rain = 0
KQU1 132244Z 12009KT 33/11 A2981 RMK A01 T03280108  RH  026%=      5-min Rain = 0
KQU1 132245Z 12008KT 33/11 A2981 RMK A01 T03280111  RH  026%=      5-min Rain = 0
KQU1 132246Z 12009KT 33/11 A2981 RMK A01 T03290113  RH  027%=      5-min Rain = 0
KQU1 132247Z 11010KT 33/11 A2981 RMK A01 T03300112  RH  026%=      5-min Rain = 0
KQU1 132248Z 11010KT 33/11 A2981 RMK A01 T03310113  RH  027%=      5-min Rain = 0
KQU1 132249Z 11010KT 33/11 A2981 RMK A01 T03310111  RH  026%=      5-min Rain = 0
KQU1 132250Z 10013KT 33/11 A2981 RMK A01 T03300111  RH  026%=      5-min Rain = 0
KQU1 132251Z 10013KT 33/11 A2981 RMK A01 T03290110  RH  026%=      5-min Rain = 0
KQU1 132252Z 09014KT 33/11 A2981 RMK A01 T03280108  RH  026%=      5-min Rain = 0
KQU1 132253Z 10010KT 33/11 A2981 RMK A01 T03270110  RH  027%=      5-min Rain = 0
KQU1 132254Z 10013KT 33/11 A2981 RMK A01 T03260109  RH  026%=      5-min Rain = 0
KQU1 132255Z 10012KT 33/11 A2981 RMK A01 T03260109  RH  026%=      5-min Rain = 0
KQU1 132256Z 10010KT 33/11 A2981 RMK A01 T03260110  RH  027%=      5-min Rain = 0
KQU1 132257Z 11012KT 33/11 A2981 RMK A01 T03260109  RH  027%=      5-min Rain = 0
KQU1 132258Z 11014KT 33/11 A2981 RMK A01 T03260110  RH  027%=      5-min Rain = 0
KQU1 132259Z 11013KT 33/11 A2981 RMK A01 T03250108  RH  026%=      5-min Rain = 0
KQU1 132300Z 11013KT 33/11 A2981 RMK A01 T03250108  RH  026%=      5-min Rain = 0
KQU1 132301Z 11012KT 33/11 A2981 RMK A01 T03250109  RH  027%=      5-min Rain = 0
KQU1 132302Z 11010KT 33/11 A2981 RMK A01 T03250111  RH  027%=      5-min Rain = 0
KQU1 132303Z 12013KT 33/11 A2981 RMK A01 T03250110  RH  027%=      5-min Rain = 0
KQU1 132304Z 11013KT 32/11 A2981 RMK A01 T03240107  RH  026%=      5-min Rain = 0
KQU1 132305Z 10012KT 32/11 A2981 RMK A01 T03230108  RH  027%=      5-min Rain = 0
KQU1 132306Z 10012KT 32/11 A2981 RMK A01 T03230106  RH  026%=      5-min Rain = 0
KQU1 132307Z 10014KT 32/11 A2981 RMK A01 T03230106  RH  027%=      5-min Rain = 0
KQU1 132308Z 10013KT 32/11 A2981 RMK A01 T03220105  RH  026%=      5-min Rain = 0
KQU1 132309Z 11011KT 32/11 A2981 RMK A01 T03220106  RH  027%=      5-min Rain = 0
KQU1 132310Z 11012KT 32/11 A2981 RMK A01 T03220105  RH  026%=      5-min Rain = 0
KQU1 132311Z 10011KT 32/11 A2981 RMK A01 T03220106  RH  026%=      5-min Rain = 0
KQU1 132312Z 10011KT 32/11 A2981 RMK A01 T03220107  RH  027%=      5-min Rain = 0
KQU1 132313Z 11011KT 32/11 A2981 RMK A01 T03220109  RH  027%=      5-min Rain = 0
KQU1 132314Z 11014KT 32/11 A2981 RMK A01 T03220107  RH  027%=      5-min Rain = 0
KQU1 132315Z 11013KT 32/11 A2981 RMK A01 T03210106  RH  027%=      5-min Rain = 0
KQU1 132316Z 10012KT 32/11 A2981 RMK A01 T03210107  RH  027%=      5-min Rain = 0
KQU1 132317Z 10014KT 32/10 A2981 RMK A01 T03210104  RH  026%=      5-min Rain = 0
KQU1 132318Z 11011KT 32/11 A2981 RMK A01 T03200107  RH  027%=      5-min Rain = 0
KQU1 132319Z 12010KT 32/11 A2981 RMK A01 T03200108  RH  027%=      5-min Rain = 0
KQU1 132320Z 12012KT 32/11 A2981 RMK A01 T03200108  RH  027%=      5-min Rain = 0
KQU1 132321Z 10010KT 32/11 A2981 RMK A01 T03200110  RH  027%=      5-min Rain = 0
KQU1 132322Z 10012KT 32/11 A2981 RMK A01 T03200107  RH  027%=      5-min Rain = 0
KQU1 132323Z 10011KT 32/11 A2981 RMK A01 T03200109  RH  027%=      5-min Rain = 0
KQU1 132324Z 10014KT 32/10 A2981 RMK A01 T03200104  RH  026%=      5-min Rain = 0
KQU1 132325Z 10012G17KT 32/11 A2981 RMK A01 T03190105  RH  027%=      5-min Rain = 0
KQU1 132326Z 10013KT 32/10 A2981 RMK A01 T03190103  RH  027%=      5-min Rain = 0
KQU1 132327Z 11011KT 32/11 A2981 RMK A01 T03190106  RH  027%=      5-min Rain = 0
KQU1 132328Z 11013KT 32/11 A2981 RMK A01 T03180105  RH  027%=      5-min Rain = 0
KQU1 132329Z 10010KT 32/11 A2981 RMK A01 T03180107  RH  027%=      5-min Rain = 0
KQU1 132330Z 10010KT 32/11 A2981 RMK A01 T03180107  RH  027%=      5-min Rain = 0
KQU1 132331Z 10012KT 32/11 A2981 RMK A01 T03180106  RH  027%=      5-min Rain = 0
KQU1 132332Z 10013KT 32/10 A2981 RMK A01 T03180104  RH  027%=      5-min Rain = 0
KQU1 132333Z 10013KT 32/10 A2981 RMK A01 T03170104  RH  027%=      5-min Rain = 0
KQU1 132334Z 11010KT 32/11 A2981 RMK A01 T03170106  RH  027%=      5-min Rain = 0
KQU1 132335Z 10010KT 32/11 A2981 RMK A01 T03170107  RH  028%=      5-min Rain = 0
KQU1 132336Z 10011KT 32/11 A2981 RMK A01 T03170106  RH  027%=      5-min Rain = 0
KQU1 132337Z 11014KT 32/10 A2981 RMK A01 T03160104  RH  027%=      5-min Rain = 0
KQU1 132338Z 10013KT 32/11 A2981 RMK A01 T03150105  RH  027%=      5-min Rain = 0
KQU1 132339Z 10013KT 32/11 A2981 RMK A01 T03150105  RH  027%=      5-min Rain = 0
KQU1 132340Z 11009KT 32/11 A2981 RMK A01 T03150108  RH  028%=      5-min Rain = 0
KQU1 132341Z 11009KT 32/11 A2981 RMK A01 T03150109  RH  028%=      5-min Rain = 0
KQU1 132342Z 11010G15KT 32/11 A2981 RMK A01 T03150108  RH  028%=      5-min Rain = 0
KQU1 132343Z 11014KT 31/10 A2981 RMK A01 T03140104  RH  027%=      5-min Rain = 0
KQU1 132344Z 11012KT 31/11 A2981 RMK A01 T03140106  RH  028%=      5-min Rain = 0
KQU1 132345Z 10011KT 31/11 A2981 RMK A01 T03140106  RH  028%=      5-min Rain = 0
KQU1 132346Z 10012KT 31/11 A2981 RMK A01 T03130105  RH  028%=      5-min Rain = 0
KQU1 132347Z 11010KT 31/11 A2981 RMK A01 T03130107  RH  028%=      5-min Rain = 0
KQU1 132348Z 11011KT 31/11 A2981 RMK A01 T03130106  RH  028%=      5-min Rain = 0
KQU1 132349Z 11011KT 31/11 A2981 RMK A01 T03120108  RH  028%=      5-min Rain = 0
KQU1 132350Z 11013KT 31/11 A2981 RMK A01 T03120105  RH  028%=      5-min Rain = 0
KQU1 132351Z 11013KT 31/10 A2981 RMK A01 T03120104  RH  028%=      5-min Rain = 0
KQU1 132352Z 10011KT 31/10 A2981 RMK A01 T03110103  RH  028%=      5-min Rain = 0
KQU1 132353Z 11010KT 31/11 A2981 RMK A01 T03110105  RH  028%=      5-min Rain = 0
KQU1 132354Z 11009KT 31/10 A2981 RMK A01 T03100104  RH  028%=      5-min Rain = 0
KQU1 132355Z 11011KT 31/11 A2981 RMK A01 T03100105  RH  028%=      5-min Rain = 0
KQU1 132356Z 10010KT 31/10 A2981 RMK A01 T03100104  RH  028%=      5-min Rain = 0
KQU1 132357Z 11011KT 31/10 A2981 RMK A01 T03090104  RH  028%=      5-min Rain = 0
KQU1 132358Z 11010KT 31/10 A2981 RMK A01 T03090104  RH  028%=      5-min Rain = 0
KQU1 132359Z 11010G15KT 31/10 A2981 RMK A01 T03090104  RH  028%=      5-min Rain = 0
KQU1 140000Z 10012KT 31/10 A2981 RMK A01 T03080102  RH  028%=      5-min Rain = 0
KQU1 140001Z 11011KT 31/10 A2981 RMK A01 T03080103  RH  028%=      5-min Rain = 0
KQU1 140002Z 11011KT 31/10 A2981 RMK A01 T03080103  RH  028%=      5-min Rain = 0
KQU1 140003Z 11011KT 31/10 A2981 RMK A01 T03070103  RH  028%=      5-min Rain = 0
KQU1 140004Z 11009KT 31/10 A2981 RMK A01 T03070104  RH  029%=      5-min Rain = 0
KQU1 140005Z 11008KT 31/11 A2981 RMK A01 T03060106  RH  029%=      5-min Rain = 0
KQU1 140006Z 11010KT 31/11 A2981 RMK A01 T03060105  RH  029%=      5-min Rain = 0
KQU1 140007Z 11011G16KT 31/10 A2981 RMK A01 T03050104  RH  029%=      5-min Rain = 0
KQU1 140008Z 10012KT 31/10 A2981 RMK A01 T03050103  RH  029%=      5-min Rain = 0
KQU1 140009Z 11013KT 30/10 A2981 RMK A01 T03040103  RH  029%=      5-min Rain = 0
KQU1 140010Z 11012KT 30/10 A2981 RMK A01 T03040102  RH  029%=      5-min Rain = 0
KQU1 140011Z 11010KT 30/10 A2981 RMK A01 T03040104  RH  029%=      5-min Rain = 0
KQU1 140012Z 11009KT 30/11 A2981 RMK A01 T03030105  RH  029%=      5-min Rain = 0
KQU1 140013Z 11010KT 30/10 A2981 RMK A01 T03020104  RH  029%=      5-min Rain = 0
KQU1 140014Z 11010KT 30/10 A2981 RMK A01 T03020104  RH  029%=      5-min Rain = 0
KQU1 140015Z 11010KT 30/10 A2981 RMK A01 T03010103  RH  029%=      5-min Rain = 0
KQU1 140016Z 11010KT 30/10 A2981 RMK A01 T03010103  RH  029%=      5-min Rain = 0
KQU1 140017Z 11010KT 30/10 A2981 RMK A01 T03010104  RH  029%=      5-min Rain = 0
KQU1 140018Z 11010KT 30/10 A2981 RMK A01 T03010103  RH  029%=      5-min Rain = 0
KQU1 140019Z 10012KT 30/10 A2981 RMK A01 T03000103  RH  029%=      5-min Rain = 0
KQU1 140020Z 11010KT 30/10 A2981 RMK A01 T03000104  RH  030%=      5-min Rain = 0
KQU1 140021Z 11009KT 30/11 A2981 RMK A01 T02990105  RH  030%=      5-min Rain = 0
KQU1 140022Z 11010KT 30/10 A2981 RMK A01 T02980104  RH  030%=      5-min Rain = 0
KQU1 140023Z 11008KT 30/11 A2981 RMK A01 T02980105  RH  030%=      5-min Rain = 0
KQU1 140024Z 11009KT 30/11 A2981 RMK A01 T02970105  RH  030%=      5-min Rain = 0
KQU1 140025Z 11008KT 30/11 A2981 RMK A01 T02970105  RH  031%=      5-min Rain = 0
KQU1 140026Z 11009KT 30/11 A2981 RMK A01 T02960106  RH  031%=      5-min Rain = 0
KQU1 140027Z 11008KT 30/11 A2981 RMK A01 T02950106  RH  031%=      5-min Rain = 0
KQU1 140028Z 11008KT 29/11 A2981 RMK A01 T02940106  RH  031%=      5-min Rain = 0
KQU1 140029Z 11008KT 29/11 A2981 RMK A01 T02940107  RH  031%=      5-min Rain = 0
KQU1 140030Z 11008KT 29/11 A2981 RMK A01 T02930107  RH  032%=      5-min Rain = 0
KQU1 140031Z 11008KT 29/11 A2981 RMK A01 T02920106  RH  032%=      5-min Rain = 0
KQU1 140032Z 11008KT 29/11 A2981 RMK A01 T02920107  RH  032%=      5-min Rain = 0
KQU1 140033Z 12008KT 29/11 A2981 RMK A01 T02910107  RH  032%=      5-min Rain = 0
KQU1 140034Z 11008KT 29/11 A2981 RMK A01 T02900106  RH  032%=      5-min Rain = 0
KQU1 140035Z 11007KT 29/11 A2981 RMK A01 T02900106  RH  032%=      5-min Rain = 0
KQU1 140036Z 11008KT 29/11 A2981 RMK A01 T02890106  RH  032%=      5-min Rain = 0
KQU1 140037Z 12007KT 29/11 A2981 RMK A01 T02890106  RH  032%=      5-min Rain = 0
KQU1 140038Z 11008KT 29/11 A2981 RMK A01 T02880106  RH  032%=      5-min Rain = 0
KQU1 140039Z 11007KT 29/11 A2981 RMK A01 T02880106  RH  032%=      5-min Rain = 0
KQU1 140040Z 11007KT 29/11 A2981 RMK A01 T02870106  RH  032%=      5-min Rain = 0
KQU1 140041Z 11006KT 29/11 A2981 RMK A01 T02870106  RH  033%=      5-min Rain = 0
KQU1 140042Z 11006KT 29/11 A2981 RMK A01 T02860107  RH  033%=      5-min Rain = 0
KQU1 140043Z 11007KT 29/11 A2981 RMK A01 T02850106  RH  033%=      5-min Rain = 0
KQU1 140044Z 11006KT 28/11 A2982 RMK A01 T02840107  RH  033%=      5-min Rain = 0
KQU1 140045Z 12006KT 28/11 A2982 RMK A01 T02830107  RH  033%=      5-min Rain = 0
KQU1 140046Z 11006KT 28/11 A2982 RMK A01 T02820107  RH  034%=      5-min Rain = 0
KQU1 140047Z 12006KT 28/11 A2982 RMK A01 T02810108  RH  034%=      5-min Rain = 0
KQU1 140048Z 11005KT 28/11 A2982 RMK A01 T02800108  RH  034%=      5-min Rain = 0
KQU1 140049Z 12006KT 28/11 A2982 RMK A01 T02790108  RH  034%=      5-min Rain = 0
KQU1 140050Z 11006KT 28/11 A2982 RMK A01 T02780108  RH  035%=      5-min Rain = 0
KQU1 140051Z 11006KT 28/11 A2982 RMK A01 T02780108  RH  035%=      5-min Rain = 0
KQU1 140052Z 12007KT 28/11 A2982 RMK A01 T02770107  RH  035%=      5-min Rain = 0
KQU1 140053Z 12006KT 28/11 A2982 RMK A01 T02770108  RH  035%=      5-min Rain = 0
KQU1 140054Z 11006KT 28/11 A2982 RMK A01 T02760108  RH  035%=      5-min Rain = 0
KQU1 140055Z 11005KT 28/11 A2982 RMK A01 T02760108  RH  035%=      5-min Rain = 0
KQU1 140056Z 12004KT 28/11 A2982 RMK A01 T02760108  RH  035%=      5-min Rain = 0
KQU1 140057Z 12005KT 28/11 A2982 RMK A01 T02750108  RH  035%=      5-min Rain = 0
KQU1 140058Z 12005KT 28/11 A2982 RMK A01 T02750108  RH  035%=      5-min Rain = 0
KQU1 140059Z 12004KT 27/11 A2982 RMK A01 T02740109  RH  036%=      5-min Rain = 0
KQU1 140100Z 12003KT 27/11 A2982 RMK A01 T02730109  RH  036%=      5-min Rain = 0
KQU1 140101Z 11004KT 27/11 A2982 RMK A01 T02730110  RH  036%=      5-min Rain = 0
KQU1 140102Z 11004KT 27/11 A2982 RMK A01 T02720110  RH  036%=      5-min Rain = 0
KQU1 140103Z 12005KT 27/11 A2982 RMK A01 T02710110  RH  036%=      5-min Rain = 0
KQU1 140104Z 12004KT 27/11 A2982 RMK A01 T02710110  RH  037%=      5-min Rain = 0
KQU1 140105Z 12005KT 27/11 A2982 RMK A01 T02700110  RH  037%=      5-min Rain = 0
KQU1 140106Z 12005KT 27/11 A2982 RMK A01 T02690110  RH  037%=      5-min Rain = 0
KQU1 140107Z 12005KT 27/11 A2982 RMK A01 T02690111  RH  037%=      5-min Rain = 0
KQU1 140108Z 12005KT 27/11 A2982 RMK A01 T02680111  RH  037%=      5-min Rain = 0
KQU1 140109Z 12005KT 27/11 A2982 RMK A01 T02680111  RH  038%=      5-min Rain = 0
KQU1 140110Z 12005KT 27/11 A2982 RMK A01 T02670111  RH  038%=      5-min Rain = 0
KQU1 140111Z 12004KT 27/11 A2982 RMK A01 T02660112  RH  038%=      5-min Rain = 0
KQU1 140112Z 12006KT 27/11 A2982 RMK A01 T02660112  RH  038%=      5-min Rain = 0
KQU1 140113Z 12005KT 27/11 A2982 RMK A01 T02650112  RH  038%=      5-min Rain = 0
KQU1 140114Z 12004KT 27/11 A2982 RMK A01 T02650112  RH  039%=      5-min Rain = 0
KQU1 140115Z 12004KT 26/11 A2982 RMK A01 T02640112  RH  039%=      5-min Rain = 0
KQU1 140116Z 12004KT 26/11 A2982 RMK A01 T02640113  RH  039%=      5-min Rain = 0
KQU1 140117Z 12004KT 26/11 A2982 RMK A01 T02630113  RH  039%=      5-min Rain = 0
KQU1 140118Z 12003KT 26/11 A2982 RMK A01 T02620113  RH  039%=      5-min Rain = 0
KQU1 140119Z 13004KT 26/11 A2982 RMK A01 T02610113  RH  040%=      5-min Rain = 0
KQU1 140120Z 12004KT 26/11 A2982 RMK A01 T02610113  RH  040%=      5-min Rain = 0
KQU1 140121Z 12003KT 26/11 A2982 RMK A01 T02600113  RH  040%=      5-min Rain = 0
KQU1 140122Z 13004KT 26/11 A2982 RMK A01 T02600113  RH  040%=      5-min Rain = 0
KQU1 140123Z 13003KT 26/11 A2982 RMK A01 T02590113  RH  040%=      5-min Rain = 0
KQU1 140124Z 13003KT 26/11 A2983 RMK A01 T02590113  RH  040%=      5-min Rain = 0
KQU1 140125Z 13004KT 26/11 A2983 RMK A01 T02590114  RH  040%=      5-min Rain = 0
KQU1 140126Z 13004KT 26/11 A2983 RMK A01 T02580113  RH  040%=      5-min Rain = 0
KQU1 140127Z 14004KT 26/11 A2983 RMK A01 T02580113  RH  040%=      5-min Rain = 0
KQU1 140128Z 14003KT 26/11 A2983 RMK A01 T02570113  RH  040%=      5-min Rain = 0
KQU1 140129Z 13003KT 26/11 A2983 RMK A01 T02570113  RH  040%=      5-min Rain = 0
KQU1 140130Z 14003KT 26/11 A2983 RMK A01 T02570113  RH  040%=      5-min Rain = 0
KQU1 140131Z 14002KT 26/11 A2983 RMK A01 T02570113  RH  040%=      5-min Rain = 0
KQU1 140132Z 16002KT 26/11 A2983 RMK A01 T02570113  RH  040%=      5-min Rain = 0
KQU1 140133Z 15002KT 26/11 A2983 RMK A01 T02570112  RH  040%=      5-min Rain = 0
KQU1 140134Z 16001KT 26/11 A2983 RMK A01 T02570112  RH  040%=      5-min Rain = 0
KQU1 140135Z 16001KT 26/11 A2983 RMK A01 T02570112  RH  040%=      5-min Rain = 0
KQU1 140136Z 17001KT 26/11 A2983 RMK A01 T02570112  RH  040%=      5-min Rain = 0
KQU1 140137Z 17001KT 26/11 A2983 RMK A01 T02570112  RH  040%=      5-min Rain = 0
KQU1 140138Z 18000KT 26/11 A2983 RMK A01 T02570112  RH  040%=      5-min Rain = 0
KQU1 140139Z 19000KT 26/11 A2983 RMK A01 T02560113  RH  041%=      5-min Rain = 0
KQU1 140140Z 18001KT 26/11 A2983 RMK A01 T02550112  RH  041%=      5-min Rain = 0
KQU1 140141Z 20001KT 25/11 A2983 RMK A01 T02540112  RH  041%=      5-min Rain = 0
KQU1 140142Z 20001KT 26/11 A2983 RMK A01 T02550111  RH  041%=      5-min Rain = 0
KQU1 140143Z 21001KT 26/11 A2983 RMK A01 T02550112  RH  041%=      5-min Rain = 0
KQU1 140144Z 17001KT 26/11 A2984 RMK A01 T02550112  RH  041%=      5-min Rain = 0
KQU1 140145Z 22002KT 25/11 A2984 RMK A01 T02540112  RH  041%=      5-min Rain = 0
KQU1 140146Z 21002KT 25/11 A2984 RMK A01 T02540112  RH  041%=      5-min Rain = 0
KQU1 140147Z 20002KT 25/11 A2984 RMK A01 T02530111  RH  041%=      5-min Rain = 0
KQU1 140148Z 17002KT 25/11 A2984 RMK A01 T02540110  RH  041%=      5-min Rain = 0
KQU1 140149Z 17001KT 26/11 A2984 RMK A01 T02550111  RH  040%=      5-min Rain = 0
KQU1 140150Z 27001KT 25/11 A2984 RMK A01 T02540111  RH  041%=      5-min Rain = 0
KQU1 140151Z 17001KT 25/11 A2984 RMK A01 T02530111  RH  041%=      5-min Rain = 0
KQU1 140152Z 20001KT 25/11 A2984 RMK A01 T02530110  RH  041%=      5-min Rain = 0
KQU1 140153Z 19002KT 25/11 A2984 RMK A01 T02530110  RH  041%=      5-min Rain = 0
KQU1 140154Z 24001KT 25/11 A2984 RMK A01 T02540110  RH  041%=      5-min Rain = 0
KQU1 140155Z 20002KT 25/11 A2984 RMK A01 T02530110  RH  041%=      5-min Rain = 0
KQU1 140156Z 23002KT 25/11 A2984 RMK A01 T02540109  RH  040%=      5-min Rain = 0
KQU1 140157Z 22002KT 25/11 A2984 RMK A01 T02540109  RH  040%=      5-min Rain = 0
KQU1 140158Z 21002KT 25/11 A2984 RMK A01 T02540109  RH  040%=      5-min Rain = 0
KQU1 140159Z 19003KT 25/11 A2984 RMK A01 T02540108  RH  040%=      5-min Rain = 0
KQU1 140200Z 20002KT 26/11 A2984 RMK A01 T02550107  RH  040%=      5-min Rain = 0
KQU1 140201Z 19002KT 26/11 A2984 RMK A01 T02550108  RH  039%=      5-min Rain = 0
KQU1 140202Z 15002KT 26/11 A2984 RMK A01 T02560108  RH  039%=      5-min Rain = 0
KQU1 140203Z 16002KT 26/11 A2984 RMK A01 T02550109  RH  040%=      5-min Rain = 0
KQU1 140204Z 16002KT 25/11 A2984 RMK A01 T02540108  RH  040%=      5-min Rain = 0
KQU1 140205Z 19002KT 25/11 A2984 RMK A01 T02540108  RH  040%=      5-min Rain = 0
KQU1 140206Z 16002KT 25/11 A2984 RMK A01 T02540107  RH  040%=      5-min Rain = 0
KQU1 140207Z 16003KT 25/11 A2984 RMK A01 T02540107  RH  040%=      5-min Rain = 0
KQU1 140208Z 16004KT 26/11 A2984 RMK A01 T02550105  RH  039%=      5-min Rain = 0
KQU1 140209Z 15003KT 26/11 A2984 RMK A01 T02560106  RH  039%=      5-min Rain = 0
KQU1 140210Z 16004KT 26/11 A2984 RMK A01 T02560106  RH  039%=      5-min Rain = 0
KQU1 140211Z 16003KT 26/11 A2984 RMK A01 T02550107  RH  039%=      5-min Rain = 0
KQU1 140212Z 16003KT 25/11 A2984 RMK A01 T02540106  RH  039%=      5-min Rain = 0
KQU1 140213Z 15003KT 25/11 A2984 RMK A01 T02530108  RH  040%=      5-min Rain = 0
KQU1 140214Z 15003KT 25/11 A2984 RMK A01 T02520107  RH  040%=      5-min Rain = 0
KQU1 140215Z 16003KT 25/11 A2984 RMK A01 T02510107  RH  040%=      5-min Rain = 0
KQU1 140216Z 16003KT 25/11 A2984 RMK A01 T02500107  RH  041%=      5-min Rain = 0
KQU1 140217Z 16003KT 25/11 A2985 RMK A01 T02500108  RH  041%=      5-min Rain = 0
KQU1 140218Z 17004KT 25/11 A2985 RMK A01 T02500107  RH  041%=      5-min Rain = 0
KQU1 140219Z 16003KT 25/11 A2985 RMK A01 T02500107  RH  041%=      5-min Rain = 0
KQU1 140220Z 16003KT 25/11 A2985 RMK A01 T02490107  RH  041%=      5-min Rain = 0
KQU1 140221Z 16003KT 25/11 A2985 RMK A01 T02490107  RH  041%=      5-min Rain = 0
KQU1 140222Z 16003KT 25/11 A2985 RMK A01 T02490106  RH  041%=      5-min Rain = 0
KQU1 140223Z 17003KT 25/11 A2985 RMK A01 T02490107  RH  041%=      5-min Rain = 0
KQU1 140224Z 16005KT 25/11 A2985 RMK A01 T02490106  RH  041%=      5-min Rain = 0
KQU1 140225Z 16004KT 25/11 A2985 RMK A01 T02490106  RH  040%=      5-min Rain = 0
KQU1 140226Z 16004KT 25/11 A2985 RMK A01 T02490106  RH  040%=      5-min Rain = 0
KQU1 140227Z 16004KT 25/11 A2985 RMK A01 T02490106  RH  040%=      5-min Rain = 0
KQU1 140228Z 15005KT 25/11 A2985 RMK A01 T02490106  RH  040%=      5-min Rain = 0
KQU1 140229Z 15005KT 25/11 A2985 RMK A01 T02490105  RH  040%=      5-min Rain = 0
KQU1 140230Z 15005KT 25/11 A2985 RMK A01 T02490105  RH  040%=      5-min Rain = 0
KQU1 140231Z 16004KT 25/11 A2985 RMK A01 T02480105  RH  040%=      5-min Rain = 0
KQU1 140232Z 17003KT 25/11 A2985 RMK A01 T02490106  RH  041%=      5-min Rain = 0
KQU1 140233Z 17004KT 25/11 A2985 RMK A01 T02480106  RH  041%=      5-min Rain = 0
KQU1 140234Z 17003KT 25/11 A2985 RMK A01 T02470107  RH  041%=      5-min Rain = 0
KQU1 140235Z 17004KT 25/11 A2985 RMK A01 T02450106  RH  042%=      5-min Rain = 0
KQU1 140236Z 18004KT 24/11 A2985 RMK A01 T02440106  RH  042%=      5-min Rain = 0
KQU1 140237Z 18004KT 24/11 A2985 RMK A01 T02430107  RH  042%=      5-min Rain = 0
KQU1 140238Z 18004KT 24/11 A2985 RMK A01 T02420108  RH  043%=      5-min Rain = 0
KQU1 140239Z 17004KT 24/11 A2985 RMK A01 T02400108  RH  043%=      5-min Rain = 0
KQU1 140240Z 17004KT 24/11 A2985 RMK A01 T02390108  RH  043%=      5-min Rain = 0
KQU1 140241Z 18004KT 24/11 A2985 RMK A01 T02390108  RH  044%=      5-min Rain = 0
KQU1 140242Z 18005KT 24/11 A2985 RMK A01 T02380108  RH  044%=      5-min Rain = 0
KQU1 140243Z 18005KT 24/11 A2985 RMK A01 T02370108  RH  044%=      5-min Rain = 0
KQU1 140244Z 19005KT 24/11 A2985 RMK A01 T02370109  RH  044%=      5-min Rain = 0
KQU1 140245Z 18005KT 24/11 A2986 RMK A01 T02360109  RH  045%=      5-min Rain = 0
KQU1 140246Z 18005KT 24/11 A2986 RMK A01 T02350109  RH  045%=      5-min Rain = 0
KQU1 140247Z 18005KT 24/11 A2985 RMK A01 T02350109  RH  045%=      5-min Rain = 0
KQU1 140248Z 19005KT 24/11 A2985 RMK A01 T02350108  RH  045%=      5-min Rain = 0
KQU1 140249Z 19005KT 24/11 A2985 RMK A01 T02360108  RH  044%=      5-min Rain = 0
KQU1 140250Z 18005KT 24/11 A2985 RMK A01 T02370109  RH  044%=      5-min Rain = 0
KQU1 140251Z 18004KT 24/11 A2986 RMK A01 T02360109  RH  045%=      5-min Rain = 0
KQU1 140252Z 18004KT 24/11 A2985 RMK A01 T02350109  RH  045%=      5-min Rain = 0
KQU1 140253Z 17004KT 24/11 A2986 RMK A01 T02350109  RH  045%=      5-min Rain = 0
KQU1 140254Z 17003KT 23/11 A2986 RMK A01 T02340109  RH  045%=      5-min Rain = 0
KQU1 140255Z 17004KT 23/11 A2986 RMK A01 T02330109  RH  046%=      5-min Rain = 0
KQU1 140256Z 17004KT 23/11 A2986 RMK A01 T02330110  RH  046%=      5-min Rain = 0
KQU1 140257Z 18003KT 23/11 A2986 RMK A01 T02320110  RH  046%=      5-min Rain = 0
KQU1 140258Z 17004KT 23/11 A2986 RMK A01 T02320110  RH  046%=      5-min Rain = 0
KQU1 140259Z 17004KT 23/11 A2986 RMK A01 T02310110  RH  046%=      5-min Rain = 0
KQU1 140300Z 18004KT 23/11 A2986 RMK A01 T02310110  RH  046%=      5-min Rain = 0
KQU1 140301Z 18004KT 23/11 A2986 RMK A01 T02310109  RH  046%=      5-min Rain = 0
KQU1 140302Z 18004KT 23/11 A2986 RMK A01 T02320108  RH  045%=      5-min Rain = 0
KQU1 140303Z 18003KT 23/11 A2986 RMK A01 T02330108  RH  045%=      5-min Rain = 0
KQU1 140304Z 18004KT 23/11 A2986 RMK A01 T02320108  RH  045%=      5-min Rain = 0
KQU1 140305Z 17004KT 23/11 A2986 RMK A01 T02340107  RH  045%=      5-min Rain = 0
KQU1 140306Z 18004KT 24/11 A2986 RMK A01 T02350107  RH  044%=      5-min Rain = 0
KQU1 140307Z 18004KT 24/11 A2986 RMK A01 T02360107  RH  044%=      5-min Rain = 0
KQU1 140308Z 19003KT 24/11 A2986 RMK A01 T02360107  RH  044%=      5-min Rain = 0
KQU1 140309Z 19003KT 24/11 A2986 RMK A01 T02350108  RH  045%=      5-min Rain = 0
KQU1 140310Z 18004KT 23/11 A2986 RMK A01 T02330108  RH  045%=      5-min Rain = 0
KQU1 140311Z 19003KT 23/11 A2986 RMK A01 T02330108  RH  045%=      5-min Rain = 0
KQU1 140312Z 19003KT 23/11 A2986 RMK A01 T02310109  RH  046%=      5-min Rain = 0
KQU1 140313Z 19003KT 23/11 A2986 RMK A01 T02300109  RH  046%=      5-min Rain = 0
KQU1 140314Z 19003KT 23/11 A2986 RMK A01 T02300108  RH  046%=      5-min Rain = 0
KQU1 140315Z 19003KT 23/11 A2986 RMK A01 T02310108  RH  046%=      5-min Rain = 0
KQU1 140316Z 19004KT 23/11 A2986 RMK A01 T02310109  RH  046%=      5-min Rain = 0
KQU1 140317Z 19004KT 23/11 A2986 RMK A01 T02300109  RH  046%=      5-min Rain = 0
KQU1 140318Z 19004KT 23/11 A2986 RMK A01 T02290109  RH  047%=      5-min Rain = 0
KQU1 140319Z 19004KT 23/11 A2986 RMK A01 T02280110  RH  047%=      5-min Rain = 0
KQU1 140320Z 19004KT 23/11 A2986 RMK A01 T02280110  RH  047%=      5-min Rain = 0
KQU1 140321Z 19004KT 23/11 A2986 RMK A01 T02280109  RH  047%=      5-min Rain = 0
KQU1 140322Z 19004KT 23/11 A2986 RMK A01 T02280110  RH  047%=      5-min Rain = 0
KQU1 140323Z 18005KT 23/11 A2986 RMK A01 T02270109  RH  047%=      5-min Rain = 0
KQU1 140324Z 18005KT 23/11 A2986 RMK A01 T02270110  RH  047%=      5-min Rain = 0
KQU1 140325Z 18005KT 23/11 A2986 RMK A01 T02270110  RH  047%=      5-min Rain = 0
KQU1 140326Z 19004KT 23/11 A2986 RMK A01 T02270110  RH  048%=      5-min Rain = 0
KQU1 140327Z 20005KT 23/11 A2986 RMK A01 T02260109  RH  047%=      5-min Rain = 0
KQU1 140328Z 20005KT 23/11 A2986 RMK A01 T02280108  RH  047%=      5-min Rain = 0
KQU1 140329Z 18005KT 23/11 A2986 RMK A01 T02300107  RH  046%=      5-min Rain = 0
KQU1 140330Z 20004KT 23/11 A2986 RMK A01 T02310108  RH  046%=      5-min Rain = 0
KQU1 140331Z 19005KT 23/11 A2986 RMK A01 T02300108  RH  046%=      5-min Rain = 0
KQU1 140332Z 18005KT 23/11 A2986 RMK A01 T02300107  RH  046%=      5-min Rain = 0
KQU1 140333Z 20005KT 23/11 A2986 RMK A01 T02300108  RH  046%=      5-min Rain = 0
KQU1 140334Z 19006KT 23/11 A2986 RMK A01 T02290109  RH  047%=      5-min Rain = 0
KQU1 140335Z 18005KT 23/11 A2986 RMK A01 T02270109  RH  047%=      5-min Rain = 0
KQU1 140336Z 19005KT 23/11 A2986 RMK A01 T02270109  RH  047%=      5-min Rain = 0
KQU1 140337Z 19005KT 23/11 A2986 RMK A01 T02260109  RH  047%=      5-min Rain = 0
KQU1 140338Z 19005KT 23/11 A2986 RMK A01 T02260108  RH  047%=      5-min Rain = 0
KQU1 140339Z 20005KT 23/11 A2986 RMK A01 T02270108  RH  047%=      5-min Rain = 0
KQU1 140340Z 20005KT 23/11 A2986 RMK A01 T02280107  RH  046%=      5-min Rain = 0
KQU1 140341Z 20005KT 23/11 A2986 RMK A01 T02290108  RH  046%=      5-min Rain = 0
KQU1 140342Z 20005KT 23/11 A2986 RMK A01 T02290107  RH  046%=      5-min Rain = 0
KQU1 140343Z 21004KT 23/11 A2986 RMK A01 T02290107  RH  046%=      5-min Rain = 0
KQU1 140344Z 21005KT 23/11 A2986 RMK A01 T02290108  RH  046%=      5-min Rain = 0
KQU1 140345Z 20004KT 23/11 A2986 RMK A01 T02280108  RH  047%=      5-min Rain = 0
KQU1 140346Z 21005KT 23/11 A2986 RMK A01 T02260108  RH  047%=      5-min Rain = 0
KQU1 140347Z 21005KT 23/11 A2986 RMK A01 T02250109  RH  048%=      5-min Rain = 0
KQU1 140348Z 21005KT 22/11 A2986 RMK A01 T02240109  RH  048%=      5-min Rain = 0
KQU1 140349Z 20004KT 22/11 A2986 RMK A01 T02240108  RH  048%=      5-min Rain = 0
KQU1 140350Z 21004KT 22/11 A2986 RMK A01 T02240109  RH  048%=      5-min Rain = 0
KQU1 140351Z 21005KT 22/11 A2986 RMK A01 T02240109  RH  048%=      5-min Rain = 0
KQU1 140352Z 20005KT 22/11 A2987 RMK A01 T02230109  RH  048%=      5-min Rain = 0
KQU1 140353Z 21005KT 22/11 A2987 RMK A01 T02220109  RH  049%=      5-min Rain = 0
KQU1 140354Z 21005KT 22/11 A2987 RMK A01 T02210109  RH  049%=      5-min Rain = 0
KQU1 140355Z 21005KT 22/11 A2987 RMK A01 T02200109  RH  049%=      5-min Rain = 0
KQU1 140356Z 21006KT 22/11 A2987 RMK A01 T02200109  RH  049%=      5-min Rain = 0
KQU1 140357Z 21006KT 22/11 A2987 RMK A01 T02200109  RH  049%=      5-min Rain = 0
KQU1 140358Z 21006KT 22/11 A2987 RMK A01 T02210109  RH  049%=      5-min Rain = 0
KQU1 140359Z 21006KT 22/11 A2986 RMK A01 T02210109  RH  049%=      5-min Rain = 0
KQU1 140400Z 20006KT 22/11 A2987 RMK A01 T02210108  RH  049%=      5-min Rain = 0
KQU1 140401Z 20006KT 22/11 A2987 RMK A01 T02230108  RH  048%=      5-min Rain = 0
KQU1 140402Z 21006KT 22/11 A2987 RMK A01 T02240108  RH  048%=      5-min Rain = 0
KQU1 140403Z 20006KT 22/11 A2987 RMK A01 T02230108  RH  048%=      5-min Rain = 0
KQU1 140404Z 20006KT 22/11 A2987 RMK A01 T02230108  RH  048%=      5-min Rain = 0
KQU1 140405Z 20006KT 22/11 A2986 RMK A01 T02230108  RH  048%=      5-min Rain = 0
KQU1 140406Z 21006KT 22/11 A2987 RMK A01 T02220108  RH  048%=      5-min Rain = 0
KQU1 140407Z 20007KT 22/11 A2987 RMK A01 T02210109  RH  049%=      5-min Rain = 0
KQU1 140408Z 20007KT 22/11 A2987 RMK A01 T02200109  RH  049%=      5-min Rain = 0
KQU1 140409Z 20007KT 22/11 A2987 RMK A01 T02200108  RH  049%=      5-min Rain = 0
KQU1 140410Z 20007KT 22/11 A2987 RMK A01 T02200108  RH  049%=      5-min Rain = 0
KQU1 140411Z 20006KT 22/11 A2987 RMK A01 T02200108  RH  049%=      5-min Rain = 0
KQU1 140412Z 20006KT 22/11 A2987 RMK A01 T02200108  RH  049%=      5-min Rain = 0
KQU1 140413Z 19006KT 22/11 A2986 RMK A01 T02200108  RH  049%=      5-min Rain = 0
KQU1 140414Z 19006KT 22/11 A2986 RMK A01 T02210107  RH  048%=      5-min Rain = 0
KQU1 140415Z 20007KT 22/11 A2987 RMK A01 T02220107  RH  048%=      5-min Rain = 0
KQU1 140416Z 19007KT 22/11 A2987 RMK A01 T02220107  RH  048%=      5-min Rain = 0
KQU1 140417Z 19007KT 22/11 A2987 RMK A01 T02220107  RH  048%=      5-min Rain = 0
KQU1 140418Z 19007KT 22/11 A2987 RMK A01 T02210107  RH  048%=      5-min Rain = 0
KQU1 140419Z 19007KT 22/11 A2987 RMK A01 T02210107  RH  048%=      5-min Rain = 0
KQU1 140420Z 19007KT 22/11 A2987 RMK A01 T02210107  RH  049%=      5-min Rain = 0
KQU1 140421Z 19007KT 22/11 A2987 RMK A01 T02210107  RH  048%=      5-min Rain = 0
KQU1 140422Z 19008KT 22/11 A2987 RMK A01 T02210107  RH  048%=      5-min Rain = 0
KQU1 140423Z 19008KT 22/11 A2987 RMK A01 T02210107  RH  048%=      5-min Rain = 0
KQU1 140424Z 19007KT 22/11 A2987 RMK A01 T02210106  RH  048%=      5-min Rain = 0
KQU1 140425Z 19008KT 22/11 A2987 RMK A01 T02220106  RH  048%=      5-min Rain = 0
KQU1 140426Z 19007KT 22/11 A2987 RMK A01 T02220106  RH  048%=      5-min Rain = 0
KQU1 140427Z 19007KT 22/11 A2987 RMK A01 T02220106  RH  048%=      5-min Rain = 0
KQU1 140428Z 18007KT 22/11 A2987 RMK A01 T02220106  RH  048%=      5-min Rain = 0
KQU1 140429Z 18007KT 22/11 A2987 RMK A01 T02230106  RH  047%=      5-min Rain = 0
KQU1 140430Z 18006KT 22/11 A2987 RMK A01 T02230105  RH  047%=      5-min Rain = 0
KQU1 140431Z 19006KT 22/11 A2987 RMK A01 T02230105  RH  047%=      5-min Rain = 0
KQU1 140432Z 19006KT 22/11 A2987 RMK A01 T02220106  RH  048%=      5-min Rain = 0
KQU1 140433Z 19006KT 22/11 A2987 RMK A01 T02210106  RH  048%=      5-min Rain = 0
KQU1 140434Z 18006KT 22/11 A2987 RMK A01 T02200106  RH  048%=      5-min Rain = 0
KQU1 140435Z 19006KT 22/11 A2987 RMK A01 T02190107  RH  049%=      5-min Rain = 0
KQU1 140436Z 19006KT 22/11 A2987 RMK A01 T02180107  RH  049%=      5-min Rain = 0
KQU1 140437Z 19006KT 22/11 A2987 RMK A01 T02170107  RH  050%=      5-min Rain = 0
KQU1 140438Z 20006KT 22/11 A2987 RMK A01 T02160107  RH  050%=      5-min Rain = 0
KQU1 140439Z 20006KT 21/11 A2987 RMK A01 T02140107  RH  050%=      5-min Rain = 0
KQU1 140440Z 20006KT 21/11 A2987 RMK A01 T02130107  RH  051%=      5-min Rain = 0
KQU1 140441Z 20006KT 21/11 A2987 RMK A01 T02120107  RH  051%=      5-min Rain = 0
KQU1 140442Z 20006KT 21/11 A2987 RMK A01 T02110107  RH  052%=      5-min Rain = 0
KQU1 140443Z 20006KT 21/11 A2987 RMK A01 T02100108  RH  052%=      5-min Rain = 0
KQU1 140444Z 20006KT 21/11 A2987 RMK A01 T02100107  RH  052%=      5-min Rain = 0
KQU1 140445Z 20006KT 21/11 A2987 RMK A01 T02090107  RH  052%=      5-min Rain = 0
KQU1 140446Z 20006KT 21/11 A2987 RMK A01 T02090107  RH  052%=      5-min Rain = 0
KQU1 140447Z 20006KT 21/11 A2987 RMK A01 T02090108  RH  052%=      5-min Rain = 0
KQU1 140448Z 20006KT 21/11 A2987 RMK A01 T02080108  RH  052%=      5-min Rain = 0
KQU1 140449Z 20006KT 21/11 A2987 RMK A01 T02080108  RH  053%=      5-min Rain = 0
KQU1 140450Z 20006KT 21/11 A2987 RMK A01 T02070108  RH  053%=      5-min Rain = 0
KQU1 140451Z 20006KT 21/11 A2987 RMK A01 T02070108  RH  053%=      5-min Rain = 0
KQU1 140452Z 20006KT 21/11 A2987 RMK A01 T02060108  RH  053%=      5-min Rain = 0
KQU1 140453Z 21006KT 21/11 A2987 RMK A01 T02060108  RH  053%=      5-min Rain = 0
KQU1 140454Z 21006KT 21/11 A2987 RMK A01 T02050108  RH  054%=      5-min Rain = 0
KQU1 140455Z 21006KT 21/11 A2987 RMK A01 T02060108  RH  053%=      5-min Rain = 0
KQU1 140456Z 21006KT 21/11 A2987 RMK A01 T02060108  RH  053%=      5-min Rain = 0
KQU1 140457Z 21006KT 21/11 A2987 RMK A01 T02060108  RH  053%=      5-min Rain = 0
KQU1 140458Z 21007KT 21/11 A2987 RMK A01 T02060108  RH  053%=      5-min Rain = 0
KQU1 140459Z 21007KT 21/11 A2987 RMK A01 T02070107  RH  053%=      5-min Rain = 0

Page generated in 0.114 seconds.